Darstellungsparameter: Aktuell verwendete Einstellungen:
Skalierung der Graphiken ... ?
xyx+y,   Skalierungsfaktor:      Skalierung: Modus: x, Faktor: 1
Darstellungszeitraum ... ?
Vom - - bis: - -   Zeitraum: 09.04.2007 - 22.04.2007
Min/Max/Avg-Anzeige ... ?
Zeige MMA aktuell
Zeige MMA Monat
Zeige MMA alles
Zeige --A aktuell
Zeige --A Monat
Zeige --A alles
Keine MMA-Anzeige
MMA:
Average (ber die Originaldaten)
MMA-Basis: 09.04.2007 - 22.04.2007
Quicknavigation für Darstellung... ?
Tage:      1T, 2T, 3T, 5T -1T -2T -3T -5T +1T +2T +3T +5T
Wochen: 1W, 2W, 3W -1W -2W -3W +1W +2W +3W
Monate: 1M, 3M, 6M -1M -3M -6M +1M +3M +6M
Jahre:    1J, 3J, 5J, 10J -1J -3J -5J -10J +1J +3J +5J +10J
Nutze für die Darstellung ... ?
Originaldaten oder Mittelwerte auf ...
Stundenbasis Tagesbasis Wochenbasis
Monatsbasis Jahresbasis      Datenbasis: Original-Daten
Darstellen als:
Statistik (Auto) Statistik J:M      Darstellung:
Zur Graphik,    zurück zur Übersicht aller Sensoren.
 
Tabellarische Datenbersicht: ?
 
Sensor: Nr:Datum:Temp:Abs-Feuchte:Windchill:Wind:
Aussen-T/F 1 09-04-2007 00:00:02 8.7 C 5.1 g/m*3 8.7 C 0 km/h
2 09-04-2007 00:05:02 8.7 C 5.1 g/m*3 8.7 C 0 km/h
3 09-04-2007 00:10:02 8.6 C 5.07 g/m*3 8.6 C 0 km/h
4 09-04-2007 00:15:02 8.6 C 5.16 g/m*3 8.6 C 0 km/h
5 09-04-2007 00:20:03 8.4 C 5.09 g/m*3 8.4 C 0 km/h
6 09-04-2007 00:25:03 8.3 C 5.06 g/m*3 8.3 C 0 km/h
7 09-04-2007 00:30:03 8.2 C 5.11 g/m*3 8.2 C 0 km/h
8 09-04-2007 00:35:02 8.1 C 5.08 g/m*3 8.1 C 0 km/h
9 09-04-2007 00:40:02 7.9 C 5.09 g/m*3 7.9 C 0 km/h
10 09-04-2007 00:45:02 7.9 C 5.09 g/m*3 7.9 C 0 km/h
11 09-04-2007 00:50:02 7.8 C 5.06 g/m*3 7.8 C 0 km/h
12 09-04-2007 00:55:02 7.8 C 5.14 g/m*3 7.8 C 0 km/h
13 09-04-2007 01:00:02 7.6 C 5.08 g/m*3 7.6 C 0 km/h
14 09-04-2007 01:05:02 7.6 C 5.16 g/m*3 7.6 C 0 km/h
15 09-04-2007 01:10:02 7.4 C 5.09 g/m*3 7.4 C 0 km/h
16 09-04-2007 01:15:02 7.4 C 5.09 g/m*3 7.4 C 0 km/h
17 09-04-2007 01:20:02 7.3 C 5.06 g/m*3 7.3 C 0 km/h
18 09-04-2007 01:25:02 7.3 C 5.06 g/m*3 7.3 C 0 km/h
19 09-04-2007 01:30:02 7.1 C 4.99 g/m*3 7.1 C 0 km/h
20 09-04-2007 01:35:02 7.2 C 5.02 g/m*3 7.2 C 0 km/h
21 09-04-2007 01:40:02 7 C 4.96 g/m*3 7 C 0 km/h
22 09-04-2007 01:45:02 7 C 4.96 g/m*3 7 C 0 km/h
23 09-04-2007 01:50:02 7 C 4.96 g/m*3 7 C 0 km/h
24 09-04-2007 01:55:02 7 C 5.04 g/m*3 7 C 0 km/h
25 09-04-2007 02:00:02 7 C 5.04 g/m*3 7 C 0 km/h
Sensor: Nr:Datum:Temp:Abs-Feuchte:Windchill:Wind:
Aussen-T/F 26 09-04-2007 02:05:02 6.9 C 5 g/m*3 6.9 C 0 km/h
27 09-04-2007 02:10:02 6.8 C 4.97 g/m*3 6.8 C 0 km/h
28 09-04-2007 02:15:02 6.8 C 5.05 g/m*3 6.8 C 0 km/h
29 09-04-2007 02:20:02 6.7 C 5.01 g/m*3 6.7 C 0 km/h
30 09-04-2007 02:25:02 6.6 C 4.98 g/m*3 6.6 C 0 km/h
31 09-04-2007 02:30:02 6.5 C 4.95 g/m*3 6.5 C 0 km/h
32 09-04-2007 02:35:02 6.4 C 4.99 g/m*3 6.4 C 0 km/h
33 09-04-2007 02:40:02 6.4 C 5.07 g/m*3 6.4 C 0 km/h
34 09-04-2007 02:46:05 6.4 C 5.07 g/m*3 6.4 C 0 km/h
35 09-04-2007 02:51:05 6.3 C 5.03 g/m*3 6.3 C 0 km/h
36 09-04-2007 02:56:05 6.3 C 5.11 g/m*3 6.3 C 0 km/h
37 09-04-2007 03:01:05 6.1 C 5.04 g/m*3 6.1 C 0 km/h
38 09-04-2007 03:06:05 6.1 C 5.04 g/m*3 6.1 C 0 km/h
39 09-04-2007 03:11:06 5.8 C 5.09 g/m*3 5.8 C 0 km/h
40 09-04-2007 03:16:06 5.7 C 5.05 g/m*3 5.7 C 0 km/h
41 09-04-2007 03:21:06 5.7 C 5.12 g/m*3 5.7 C 0 km/h
42 09-04-2007 03:26:06 5.5 C 5.06 g/m*3 5.5 C 0 km/h
43 09-04-2007 03:31:02 5.5 C 5.06 g/m*3 5.5 C 0 km/h
44 09-04-2007 03:36:02 5.5 C 5.06 g/m*3 5.5 C 0 km/h
45 09-04-2007 03:41:02 5.4 C 5.09 g/m*3 5.4 C 0 km/h
46 09-04-2007 03:46:03 5.2 C 5.03 g/m*3 5.2 C 0 km/h
47 09-04-2007 03:51:03 5.2 C 5.03 g/m*3 5.2 C 0 km/h
48 09-04-2007 03:56:03 5.2 C 5.03 g/m*3 5.2 C 0 km/h
49 09-04-2007 04:01:02 5.1 C 4.99 g/m*3 5.1 C 0 km/h
50 09-04-2007 04:06:02 5 C 4.96 g/m*3 5 C 0 km/h
Sensor: Nr:Datum:Temp:Abs-Feuchte:Windchill:Wind:
Aussen-T/F 51 09-04-2007 04:11:02 5 C 4.96 g/m*3 5 C 0 km/h
52 09-04-2007 04:16:03 5 C 4.96 g/m*3 5 C 0 km/h
53 09-04-2007 04:21:03 5 C 4.96 g/m*3 5 C 0 km/h
54 09-04-2007 04:26:03 4.9 C 5.06 g/m*3 4.9 C 0 km/h
55 09-04-2007 04:31:02 4.9 C 5 g/m*3 4.9 C 0 km/h
56 09-04-2007 04:36:02 4.9 C 5.06 g/m*3 4.9 C 0 km/h
57 09-04-2007 04:41:03 5 C 5.03 g/m*3 5 C 0 km/h
58 09-04-2007 04:46:02 4.6 C 5.1 g/m*3 4.6 C 0 km/h
59 09-04-2007 04:51:03 4.5 C 5.06 g/m*3 4.5 C 0 km/h
60 09-04-2007 04:56:03 4.3 C 5.06 g/m*3 4.3 C 0 km/h
61 09-04-2007 05:01:02 4.3 C 5.06 g/m*3 4.3 C 0 km/h
62 09-04-2007 05:06:02 4.2 C 5.03 g/m*3 4.2 C 0 km/h
63 09-04-2007 05:11:03 4.2 C 5.03 g/m*3 4.2 C 0 km/h
64 09-04-2007 05:16:02 4.2 C 5.03 g/m*3 4.2 C 0 km/h
65 09-04-2007 05:21:02 4.2 C 5.03 g/m*3 4.2 C 0 km/h
66 09-04-2007 05:26:02 4.2 C 5.03 g/m*3 4.2 C 0 km/h
67 09-04-2007 05:31:02 4.1 C 4.99 g/m*3 4.1 C 0 km/h
68 09-04-2007 05:36:02 4.2 C 5.03 g/m*3 4.2 C 0 km/h
69 09-04-2007 05:41:02 4.2 C 5.03 g/m*3 4.2 C 0 km/h
70 09-04-2007 05:46:01 4.1 C 4.99 g/m*3 4.1 C 0 km/h
71 09-04-2007 05:51:01 4.1 C 4.99 g/m*3 4.1 C 0 km/h
72 09-04-2007 05:56:01 4 C 4.9 g/m*3 4 C 0 km/h
73 09-04-2007 06:01:02 3.9 C 4.93 g/m*3 3.9 C 0 km/h
74 09-04-2007 06:06:02 3.9 C 4.99 g/m*3 3.9 C 0 km/h
75 09-04-2007 06:11:02 3.8 C 4.96 g/m*3 3.8 C 0 km/h
Sensor: Nr:Datum:Temp:Abs-Feuchte:Windchill:Wind:
Aussen-T/F 76 09-04-2007 06:16:02 3.7 C 4.99 g/m*3 3.7 C 0 km/h
77 09-04-2007 06:21:03 3.7 C 4.99 g/m*3 3.7 C 0 km/h
78 09-04-2007 06:26:03 3.6 C 4.95 g/m*3 3.6 C 0 km/h
79 09-04-2007 06:31:01 3.6 C 5.01 g/m*3 3.6 C 0 km/h
80 09-04-2007 06:36:01 3.6 C 5.01 g/m*3 3.6 C 0 km/h
81 09-04-2007 06:41:01 3.5 C 4.98 g/m*3 3.5 C 0 km/h
82 09-04-2007 06:46:02 3.4 C 4.95 g/m*3 3.4 C 0 km/h
83 09-04-2007 06:51:02 3.4 C 5.01 g/m*3 3.4 C 0 km/h
84 09-04-2007 06:56:02 3.3 C 4.97 g/m*3 3.3 C 0 km/h
85 09-04-2007 07:01:02 3.3 C 4.97 g/m*3 3.3 C 0 km/h
86 09-04-2007 07:06:02 3.3 C 4.97 g/m*3 3.3 C 0 km/h
87 09-04-2007 07:11:02 3.2 C 4.94 g/m*3 3.2 C 0 km/h
88 09-04-2007 07:16:01 3.2 C 4.88 g/m*3 3.2 C 0 km/h
89 09-04-2007 07:21:01 3.1 C 4.85 g/m*3 3.1 C 0 km/h
90 09-04-2007 07:26:01 3.1 C 4.85 g/m*3 3.1 C 0 km/h
91 09-04-2007 07:31:01 3.2 C 4.88 g/m*3 3.2 C 0 km/h
92 09-04-2007 07:36:01 3.3 C 4.97 g/m*3 3.3 C 0 km/h
93 09-04-2007 07:41:01 3.3 C 4.97 g/m*3 3.3 C 0 km/h
94 09-04-2007 07:46:02 3.3 C 4.97 g/m*3 3.3 C 0 km/h
95 09-04-2007 07:51:02 3.3 C 4.97 g/m*3 3.3 C 0 km/h
96 09-04-2007 07:56:03 3.4 C 5.01 g/m*3 3.4 C 0 km/h
97 09-04-2007 08:01:01 3.4 C 5.01 g/m*3 3.4 C 0 km/h
98 09-04-2007 08:06:01 3.5 C 5.04 g/m*3 3.5 C 0 km/h
99 09-04-2007 08:11:01 3.6 C 5.08 g/m*3 3.6 C 0 km/h
100 09-04-2007 08:16:01 3.6 C 5.08 g/m*3 3.6 C 0 km/h
Sensor: Nr:Datum:Temp:Abs-Feuchte:Windchill:Wind:
Aussen-T/F 101 09-04-2007 08:21:01 3.7 C 5.11 g/m*3 3.7 C 0 km/h
102 09-04-2007 08:26:01 3.8 C 5.14 g/m*3 3.8 C 0 km/h
103 09-04-2007 08:31:02 3.9 C 5.18 g/m*3 3.9 C 0 km/h
104 09-04-2007 08:36:02 4 C 5.15 g/m*3 4 C 0 km/h
105 09-04-2007 08:41:02 4.1 C 5.18 g/m*3 4.1 C 0 km/h
106 09-04-2007 08:46:01 4.2 C 5.22 g/m*3 4.2 C 0 km/h
107 09-04-2007 08:51:01 4.4 C 5.29 g/m*3 4.4 C 0 km/h
108 09-04-2007 08:56:01 4.6 C 5.36 g/m*3 4.6 C 0 km/h
109 09-04-2007 09:01:02 4.8 C 5.36 g/m*3 4.8 C 0 km/h
110 09-04-2007 09:06:02 5 C 5.37 g/m*3 5 C 0 km/h
111 09-04-2007 09:11:02 5.4 C 5.44 g/m*3 5.4 C 0 km/h
112 09-04-2007 09:16:02 5.7 C 5.41 g/m*3 5.7 C 0 km/h
113 09-04-2007 09:21:02 5.8 C 5.44 g/m*3 5.8 C 0 km/h
114 09-04-2007 09:26:02 6.1 C 5.48 g/m*3 6.1 C 0 km/h
115 09-04-2007 09:31:01 6.5 C 5.47 g/m*3 6.5 C 0 km/h
116 09-04-2007 09:36:01 6.6 C 5.44 g/m*3 6.6 C 0 km/h
117 09-04-2007 09:41:01 6.8 C 5.43 g/m*3 6.8 C 0 km/h
118 09-04-2007 09:46:02 7.1 C 5.46 g/m*3 7.1 C 0 km/h
119 09-04-2007 09:51:02 7.3 C 5.53 g/m*3 7.3 C 0 km/h
120 09-04-2007 09:56:02 7.6 C 5.64 g/m*3 7.6 C 0 km/h
121 09-04-2007 10:01:02 7.9 C 5.67 g/m*3 7.9 C 0 km/h
122 09-04-2007 10:06:02 8.2 C 5.53 g/m*3 8.2 C 0 km/h
123 09-04-2007 10:11:02 8.4 C 5.51 g/m*3 8.4 C 0 km/h
124 09-04-2007 10:16:02 8.7 C 5.53 g/m*3 8.7 C 0 km/h
125 09-04-2007 10:21:02 9.1 C 5.41 g/m*3 9.1 C 0 km/h
Sensor: Nr:Datum:Temp:Abs-Feuchte:Windchill:Wind:
Aussen-T/F 126 09-04-2007 10:26:02 9.2 C 5.45 g/m*3 9.2 C 0 km/h
127 09-04-2007 10:31:02 9.6 C 5.5 g/m*3 9.6 C 0 km/h
128 09-04-2007 10:36:02 10 C 5.45 g/m*3 10 C 0 km/h
129 09-04-2007 10:41:02 10.1 C 5.39 g/m*3 10.1 C 0 km/h
130 09-04-2007 10:46:02 10.6 C 5.47 g/m*3 10.6 C 0 km/h
131 09-04-2007 10:51:02 11 C 5.31 g/m*3 11 C 0 km/h
132 09-04-2007 10:56:02 11.4 C 5.03 g/m*3 11.4 C 0 km/h
133 09-04-2007 11:01:02 11.5 C 4.85 g/m*3 11.5 C 0 km/h
134 09-04-2007 11:06:02 11.9 C 4.98 g/m*3 11.9 C 0 km/h
135 09-04-2007 11:11:03 12.4 C 5.03 g/m*3 12.4 C 0 km/h
136 09-04-2007 11:16:02 12.5 C 5.06 g/m*3 12.5 C 0 km/h
137 09-04-2007 11:21:02 12.7 C 5.01 g/m*3 12.7 C 0 km/h
138 09-04-2007 11:26:02 12.8 C 4.93 g/m*3 12.8 C 0 km/h
139 09-04-2007 11:31:03 13 C 4.88 g/m*3 13 C 0 km/h
140 09-04-2007 11:36:03 13.2 C 4.82 g/m*3 13.2 C 0 km/h
141 09-04-2007 11:41:03 13.4 C 4.88 g/m*3 13.4 C 0 km/h
142 09-04-2007 11:46:01 13.6 C 5.06 g/m*3 13.6 C 0 km/h
143 09-04-2007 11:51:01 13.8 C 5 g/m*3 13.8 C 0 km/h
144 09-04-2007 11:56:01 14 C 4.95 g/m*3 14 C 0 km/h
145 09-04-2007 12:01:01 14.4 C 5.07 g/m*3 14.4 C 0 km/h
146 09-04-2007 12:06:01 14.4 C 4.94 g/m*3 14.4 C 0 km/h
147 09-04-2007 12:11:01 14.7 C 5.04 g/m*3 14.7 C 0 km/h
148 09-04-2007 12:16:01 15.1 C 5.03 g/m*3 15.1 C 0 km/h
149 09-04-2007 12:21:01 15.4 C 5.12 g/m*3 15.4 C 0 km/h
150 09-04-2007 12:26:01 16 C 5.18 g/m*3 16 C 0 km/h
Sensor: Nr:Datum:Temp:Abs-Feuchte:Windchill:Wind:
Aussen-T/F 151 09-04-2007 12:31:04 16.5 C 5.06 g/m*3 16.5 C 0 km/h
152 09-04-2007 12:36:05 16.6 C 4.94 g/m*3 16.6 C 0 km/h
153 09-04-2007 12:41:05 17 C 5.06 g/m*3 17 C 0 km/h
154 09-04-2007 12:46:03 17.1 C 4.95 g/m*3 17.1 C 0 km/h
155 09-04-2007 12:51:03 17 C 4.77 g/m*3 17 C 0 km/h
156 09-04-2007 12:56:03 17.1 C 4.95 g/m*3 17.1 C 0 km/h
157 09-04-2007 13:01:02 17.5 C 5.22 g/m*3 17.5 C 0 km/h
158 09-04-2007 13:06:02 17.6 C 4.95 g/m*3 17.6 C 0 km/h
159 09-04-2007 13:11:02 17.3 C 4.86 g/m*3 17.3 C 0 km/h
160 09-04-2007 13:16:02 17.3 C 5.01 g/m*3 17.3 C 0 km/h
161 09-04-2007 13:21:03 17.6 C 5.1 g/m*3 17.6 C 0 km/h
162 09-04-2007 13:26:03 18 C 5.07 g/m*3 18 C 0 km/h
163 09-04-2007 13:31:05 18.7 C 5.12 g/m*3 18.7 C 0 km/h
164 09-04-2007 13:36:05 19.1 C 4.92 g/m*3 19.1 C 0 km/h
165 09-04-2007 13:41:05 19.4 C 5.17 g/m*3 19.4 C 0 km/h
166 09-04-2007 13:46:02 19.5 C 5.03 g/m*3 19.5 C 0 km/h
167 09-04-2007 13:51:02 19.8 C 5.3 g/m*3 19.8 C 0 km/h
168 09-04-2007 13:56:02 20.3 C 5.1 g/m*3 20.3 C 0 km/h
169 09-04-2007 14:01:01 20.3 C 4.92 g/m*3 20.3 C 0 km/h
170 09-04-2007 14:06:01 19.9 C 4.81 g/m*3 19.9 C 0 km/h
171 09-04-2007 14:11:01 19.5 C 5.03 g/m*3 19.5 C 0 km/h
172 09-04-2007 14:16:02 19.7 C 5.26 g/m*3 19.7 C 0 km/h
173 09-04-2007 14:21:02 20.2 C 5.25 g/m*3 20.2 C 0 km/h
174 09-04-2007 14:26:02 19.8 C 4.78 g/m*3 19.8 C 0 km/h
175 09-04-2007 14:31:02 19.6 C 4.73 g/m*3 19.6 C 0 km/h
Sensor: Nr:Datum:Temp:Abs-Feuchte:Windchill:Wind:
Aussen-T/F 176 09-04-2007 14:36:02 19.7 C 4.75 g/m*3 19.7 C 0 km/h
177 09-04-2007 14:41:02 20.3 C 4.75 g/m*3 20.3 C 0 km/h
178 09-04-2007 14:46:02 20 C 4.84 g/m*3 20 C 0 km/h
179 09-04-2007 14:51:02 20 C 4.84 g/m*3 20 C 0 km/h
180 09-04-2007 14:56:02 20 C 4.67 g/m*3 20 C 0 km/h
181 09-04-2007 15:01:02 19.2 C 4.62 g/m*3 19.2 C 0 km/h
182 09-04-2007 15:06:02 19.2 C 4.45 g/m*3 19.2 C 0 km/h
183 09-04-2007 15:11:02 19.3 C 4.48 g/m*3 19.3 C 0 km/h
184 09-04-2007 15:16:02 19.7 C 4.58 g/m*3 19.7 C 0 km/h
185 09-04-2007 15:21:02 20 C 4.32 g/m*3 20 C 0 km/h
186 09-04-2007 15:26:02 20.1 C 4.69 g/m*3 20.1 C 0 km/h
187 09-04-2007 15:31:02 20.6 C 4.83 g/m*3 20.6 C 0 km/h
188 09-04-2007 15:36:02 21 C 4.76 g/m*3 21 C 0 km/h
189 09-04-2007 15:41:02 20.5 C 4.45 g/m*3 20.5 C 0 km/h
190 09-04-2007 15:46:03 20.2 C 4.55 g/m*3 20.2 C 0 km/h
191 09-04-2007 15:51:03 19.9 C 4.64 g/m*3 19.9 C 0 km/h
192 09-04-2007 15:56:03 20 C 4.67 g/m*3 20 C 0 km/h
193 09-04-2007 16:01:02 19.6 C 4.56 g/m*3 19.6 C 0 km/h
194 09-04-2007 16:06:02 20 C 4.49 g/m*3 20 C 0 km/h
195 09-04-2007 16:11:02 20 C 4.32 g/m*3 20 C 0 km/h
196 09-04-2007 16:16:02 20.9 C 4.55 g/m*3 20.9 C 0 km/h
197 09-04-2007 16:21:02 20.3 C 4.4 g/m*3 20.3 C 0 km/h
198 09-04-2007 16:26:02 20.2 C 4.55 g/m*3 20.2 C 0 km/h
199 09-04-2007 16:31:03 19.9 C 4.47 g/m*3 19.9 C 0 km/h
200 09-04-2007 16:36:03 19.3 C 4.64 g/m*3 19.3 C 0 km/h
Sensor: Nr:Datum:Temp:Abs-Feuchte:Windchill:Wind:
Aussen-T/F 201 09-04-2007 16:41:03 19.5 C 4.87 g/m*3 19.5 C 0 km/h
202 09-04-2007 16:46:02 19.9 C 4.81 g/m*3 19.9 C 0 km/h
203 09-04-2007 16:51:02 19.4 C 4.5 g/m*3 19.4 C 0 km/h
204 09-04-2007 16:56:02 19.3 C 4.81 g/m*3 19.3 C 0 km/h
205 09-04-2007 17:01:02 19 C 4.56 g/m*3 19 C 0 km/h
206 09-04-2007 17:06:02 18.8 C 4.67 g/m*3 18.8 C 0 km/h
207 09-04-2007 17:11:02 18.5 C 4.75 g/m*3 18.5 C 0 km/h
208 09-04-2007 17:16:02 18.5 C 4.75 g/m*3 18.5 C 0 km/h
209 09-04-2007 17:21:02 18.5 C 4.75 g/m*3 18.5 C 0 km/h
210 09-04-2007 17:26:02 18.4 C 4.72 g/m*3 18.4 C 0 km/h
211 09-04-2007 17:31:03 18.3 C 4.69 g/m*3 18.3 C 0 km/h
212 09-04-2007 17:36:03 18.2 C 4.82 g/m*3 18.2 C 0 km/h
213 09-04-2007 17:41:03 18.1 C 4.79 g/m*3 18.1 C 0 km/h
214 09-04-2007 17:46:02 18.6 C 4.93 g/m*3 18.6 C 0 km/h
215 09-04-2007 17:51:02 18.9 C 5.02 g/m*3 18.9 C 0 km/h
216 09-04-2007 17:56:02 19.1 C 4.92 g/m*3 19.1 C 0 km/h
217 09-04-2007 18:01:02 18.9 C 4.86 g/m*3 18.9 C 0 km/h
218 09-04-2007 18:06:02 18.7 C 4.96 g/m*3 18.7 C 0 km/h
219 09-04-2007 18:11:02 18.8 C 4.99 g/m*3 18.8 C 0 km/h
220 09-04-2007 18:16:02 18.9 C 5.02 g/m*3 18.9 C 0 km/h
221 09-04-2007 18:21:02 18.8 C 5.15 g/m*3 18.8 C 0 km/h
222 09-04-2007 18:26:02 18.2 C 4.97 g/m*3 18.2 C 0 km/h
223 09-04-2007 18:31:02 18 C 5.07 g/m*3 18 C 0 km/h
224 09-04-2007 18:36:02 18.1 C 5.1 g/m*3 18.1 C 0 km/h
225 09-04-2007 18:41:02 18.1 C 5.1 g/m*3 18.1 C 0 km/h
Sensor: Nr:Datum:Temp:Abs-Feuchte:Windchill:Wind:
Aussen-T/F 226 09-04-2007 18:46:01 18.2 C 4.97 g/m*3 18.2 C 0 km/h
227 09-04-2007 18:51:01 17.9 C 5.04 g/m*3 17.9 C 0 km/h
228 09-04-2007 18:56:01 17.7 C 4.83 g/m*3 17.7 C 0 km/h
229 09-04-2007 19:01:01 17.4 C 4.89 g/m*3 17.4 C 0 km/h
230 09-04-2007 19:06:01 17.4 C 4.89 g/m*3 17.4 C 0 km/h
231 09-04-2007 19:11:01 17.4 C 4.89 g/m*3 17.4 C 0 km/h
232 09-04-2007 19:16:02 17.2 C 4.98 g/m*3 17.2 C 0 km/h
233 09-04-2007 19:21:02 17.2 C 4.83 g/m*3 17.2 C 0 km/h
234 09-04-2007 19:26:02 17.1 C 4.8 g/m*3 17.1 C 0 km/h
235 09-04-2007 19:31:02 16.9 C 4.89 g/m*3 16.9 C 0 km/h
236 09-04-2007 19:36:02 16.5 C 4.91 g/m*3 16.5 C 0 km/h
237 09-04-2007 19:41:02 16.3 C 4.86 g/m*3 16.3 C 0 km/h
238 09-04-2007 19:46:01 16.3 C 4.86 g/m*3 16.3 C 0 km/h
239 09-04-2007 19:51:01 16.2 C 5.1 g/m*3 16.2 C 0 km/h
240 09-04-2007 19:56:01 15.9 C 4.88 g/m*3 15.9 C 0 km/h
241 09-04-2007 20:01:01 15.8 C 4.98 g/m*3 15.8 C 0 km/h
242 09-04-2007 20:06:01 15.6 C 5.05 g/m*3 15.6 C 0 km/h
243 09-04-2007 20:11:01 15.4 C 4.99 g/m*3 15.4 C 0 km/h
244 09-04-2007 20:16:01 15.2 C 5.06 g/m*3 15.2 C 0 km/h
245 09-04-2007 20:21:01 15 C 5 g/m*3 15 C 0 km/h
246 09-04-2007 20:26:01 14.8 C 5.19 g/m*3 14.8 C 0 km/h
247 09-04-2007 20:31:02 14.7 C 5.16 g/m*3 14.7 C 0 km/h
248 09-04-2007 20:36:02 14.5 C 5.1 g/m*3 14.5 C 0 km/h
249 09-04-2007 20:41:02 14.4 C 5.19 g/m*3 14.4 C 0 km/h
250 09-04-2007 20:46:02 14.3 C 5.16 g/m*3 14.3 C 0 km/h
Sensor: Nr:Datum:Temp:Abs-Feuchte:Windchill:Wind:
Aussen-T/F 251 09-04-2007 20:51:02 14.4 C 5.19 g/m*3 14.4 C 0 km/h
252 09-04-2007 20:56:02 14.2 C 5.13 g/m*3 14.2 C 0 km/h
253 09-04-2007 21:01:02 14.1 C 5.1 g/m*3 14.1 C 0 km/h
254 09-04-2007 21:06:02 14.1 C 5.1 g/m*3 14.1 C 0 km/h
255 09-04-2007 21:11:02 14.1 C 4.98 g/m*3 14.1 C 0 km/h
256 09-04-2007 21:16:01 14 C 5.07 g/m*3 14 C 0 km/h
257 09-04-2007 21:21:01 14 C 4.95 g/m*3 14 C 0 km/h
258 09-04-2007 21:26:01 14 C 5.07 g/m*3 14 C 0 km/h
259 09-04-2007 21:31:01 13.8 C 5.24 g/m*3 13.8 C 0 km/h
260 09-04-2007 21:36:01 13.5 C 5.15 g/m*3 13.5 C 0 km/h
261 09-04-2007 21:41:01 13.4 C 5.11 g/m*3 13.4 C 0 km/h
262 09-04-2007 21:46:02 13.3 C 5.2 g/m*3 13.3 C 0 km/h
263 09-04-2007 21:51:02 13.2 C 5.17 g/m*3 13.2 C 0 km/h
264 09-04-2007 21:56:02 12.7 C 5.12 g/m*3 12.7 C 0 km/h
265 09-04-2007 22:01:02 13.2 C 5.17 g/m*3 13.2 C 0 km/h
266 09-04-2007 22:06:02 13.1 C 5.25 g/m*3 13.1 C 0 km/h
267 09-04-2007 22:11:03 13.1 C 5.25 g/m*3 13.1 C 0 km/h
268 09-04-2007 22:16:02 13 C 5.22 g/m*3 13 C 0 km/h
269 09-04-2007 22:21:02 12.9 C 5.3 g/m*3 12.9 C 0 km/h
270 09-04-2007 22:26:02 12.8 C 5.26 g/m*3 12.8 C 0 km/h
271 09-04-2007 22:31:01 12.8 C 5.38 g/m*3 12.8 C 0 km/h
272 09-04-2007 22:36:01 12.8 C 5.26 g/m*3 12.8 C 0 km/h
273 09-04-2007 22:41:01 12.5 C 5.28 g/m*3 12.5 C 0 km/h
274 09-04-2007 22:46:02 12.5 C 5.28 g/m*3 12.5 C 0 km/h
275 09-04-2007 22:51:02 12.4 C 5.35 g/m*3 12.4 C 0 km/h
Sensor: Nr:Datum:Temp:Abs-Feuchte:Windchill:Wind:
Aussen-T/F 276 09-04-2007 22:56:02 12.2 C 5.18 g/m*3 12.2 C 0 km/h
277 09-04-2007 23:01:02 12.2 C 5.29 g/m*3 12.2 C 0 km/h
278 09-04-2007 23:06:02 11.9 C 5.51 g/m*3 11.9 C 0 km/h
279 09-04-2007 23:11:02 11.8 C 5.47 g/m*3 11.8 C 0 km/h
280 09-04-2007 23:16:01 11.8 C 5.47 g/m*3 11.8 C 0 km/h
281 09-04-2007 23:21:01 11.4 C 5.54 g/m*3 11.4 C 0 km/h
282 09-04-2007 23:26:01 11.2 C 5.37 g/m*3 11.2 C 0 km/h
283 09-04-2007 23:31:02 11.2 C 5.37 g/m*3 11.2 C 0 km/h
284 09-04-2007 23:36:02 11 C 5.61 g/m*3 11 C 0 km/h
285 09-04-2007 23:41:02 10.9 C 5.67 g/m*3 10.9 C 0 km/h
286 09-04-2007 23:46:01 10.6 C 5.76 g/m*3 10.6 C 0 km/h
287 09-04-2007 23:51:01 10.5 C 5.72 g/m*3 10.5 C 0 km/h
288 09-04-2007 23:56:01 10.4 C 5.78 g/m*3 10.4 C 0 km/h
289 10-04-2007 00:01:02 10.3 C 5.75 g/m*3 10.3 C 0 km/h
290 10-04-2007 00:06:02 10.3 C 5.75 g/m*3 10.3 C 0 km/h
291 10-04-2007 00:11:02 10.1 C 5.67 g/m*3 10.1 C 0 km/h
292 10-04-2007 00:16:03 9.9 C 5.79 g/m*3 9.9 C 0 km/h
293 10-04-2007 00:21:04 9.9 C 5.79 g/m*3 9.9 C 0 km/h
294 10-04-2007 00:26:04 9.7 C 5.62 g/m*3 9.7 C 0 km/h
295 10-04-2007 00:31:02 9.6 C 5.68 g/m*3 9.6 C 0 km/h
296 10-04-2007 00:36:02 9.5 C 5.73 g/m*3 9.5 C 0 km/h
297 10-04-2007 00:41:02 9.4 C 5.7 g/m*3 9.4 C 0 km/h
298 10-04-2007 00:46:03 9.3 C 5.75 g/m*3 9.3 C 0 km/h
299 10-04-2007 00:51:03 9.1 C 5.77 g/m*3 9.1 C 0 km/h
300 10-04-2007 00:56:03 9.1 C 5.77 g/m*3 9.1 C 0 km/h
Sensor: Nr:Datum:Temp:Abs-Feuchte:Windchill:Wind:
Aussen-T/F 301 10-04-2007 01:01:02 9.1 C 5.68 g/m*3 9.1 C 0 km/h
302 10-04-2007 01:06:02 9.1 C 5.77 g/m*3 9.1 C 0 km/h
303 10-04-2007 01:11:02 9 C 5.73 g/m*3 9 C 0 km/h
304 10-04-2007 01:16:02 9 C 5.64 g/m*3 9 C 0 km/h
305 10-04-2007 01:21:02 8.9 C 5.69 g/m*3 8.9 C 0 km/h
306 10-04-2007 01:26:02 8.9 C 5.69 g/m*3 8.9 C 0 km/h
307 10-04-2007 01:31:03 8.8 C 5.66 g/m*3 8.8 C 0 km/h
308 10-04-2007 01:36:03 8.9 C 5.78 g/m*3 8.9 C 0 km/h
309 10-04-2007 01:41:03 8.7 C 5.71 g/m*3 8.7 C 0 km/h
310 10-04-2007 01:46:03 8.6 C 5.67 g/m*3 8.6 C 0 km/h
311 10-04-2007 01:51:03 8.5 C 5.72 g/m*3 8.5 C 0 km/h
312 10-04-2007 01:56:03 8.4 C 5.68 g/m*3 8.4 C 0 km/h
313 10-04-2007 02:01:02 8.4 C 5.68 g/m*3 8.4 C 0 km/h
314 10-04-2007 02:06:02 8.2 C 5.61 g/m*3 8.2 C 0 km/h
315 10-04-2007 02:11:03 8.2 C 5.69 g/m*3 8.2 C 0 km/h
316 10-04-2007 02:16:03 8.1 C 5.66 g/m*3 8.1 C 0 km/h
317 10-04-2007 02:21:03 8 C 5.62 g/m*3 8 C 0 km/h
318 10-04-2007 02:26:03 7.9 C 5.75 g/m*3 7.9 C 0 km/h
319 10-04-2007 02:31:03 7.9 C 5.75 g/m*3 7.9 C 0 km/h
320 10-04-2007 02:36:03 7.8 C 5.71 g/m*3 7.8 C 0 km/h
321 10-04-2007 02:41:03 7.7 C 5.68 g/m*3 7.7 C 0 km/h
322 10-04-2007 02:46:01 7.5 C 5.6 g/m*3 7.5 C 0 km/h
323 10-04-2007 02:51:01 7.5 C 5.6 g/m*3 7.5 C 0 km/h
324 10-04-2007 02:56:01 7.4 C 5.57 g/m*3 7.4 C 0 km/h
325 10-04-2007 03:01:01 7.4 C 5.65 g/m*3 7.4 C 0 km/h
Sensor: Nr:Datum:Temp:Abs-Feuchte:Windchill:Wind:
Aussen-T/F 326 10-04-2007 03:06:01 7.4 C 5.65 g/m*3 7.4 C 0 km/h
327 10-04-2007 03:11:01 7.5 C 5.68 g/m*3 7.5 C 0 km/h
328 10-04-2007 03:16:01 7.6 C 5.72 g/m*3 7.6 C 0 km/h
329 10-04-2007 03:21:01 7.7 C 5.76 g/m*3 7.7 C 0 km/h
330 10-04-2007 03:26:02 7.7 C 5.76 g/m*3 7.7 C 0 km/h
331 10-04-2007 03:31:02 7.5 C 5.68 g/m*3 7.5 C 0 km/h
332 10-04-2007 03:36:02 7.4 C 5.65 g/m*3 7.4 C 0 km/h
333 10-04-2007 03:41:02 7.3 C 5.61 g/m*3 7.3 C 0 km/h
334 10-04-2007 03:46:02 7.2 C 5.57 g/m*3 7.2 C 0 km/h
335 10-04-2007 03:51:02 7.1 C 5.62 g/m*3 7.1 C 0 km/h
336 10-04-2007 03:56:02 7 C 5.58 g/m*3 7 C 0 km/h
337 10-04-2007 04:01:02 6.9 C 5.62 g/m*3 6.9 C 0 km/h
338 10-04-2007 04:06:02 6.6 C 5.51 g/m*3 6.6 C 0 km/h
339 10-04-2007 04:11:02 6.5 C 5.47 g/m*3 6.5 C 0 km/h
340 10-04-2007 04:16:02 6.5 C 5.55 g/m*3 6.5 C 0 km/h
341 10-04-2007 04:21:02 6.4 C 5.59 g/m*3 6.4 C 0 km/h
342 10-04-2007 04:26:02 6.3 C 5.55 g/m*3 6.3 C 0 km/h
343 10-04-2007 04:31:02 6.2 C 5.59 g/m*3 6.2 C 0 km/h
344 10-04-2007 04:36:02 6.1 C 5.55 g/m*3 6.1 C 0 km/h
345 10-04-2007 04:41:02 6 C 5.59 g/m*3 6 C 0 km/h
346 10-04-2007 04:46:01 5.9 C 5.62 g/m*3 5.9 C 0 km/h
347 10-04-2007 04:51:01 5.9 C 5.62 g/m*3 5.9 C 0 km/h
348 10-04-2007 04:56:01 5.8 C 5.66 g/m*3 5.8 C 0 km/h
349 10-04-2007 05:01:01 5.8 C 5.66 g/m*3 5.8 C 0 km/h
350 10-04-2007 05:06:01 5.8 C 5.66 g/m*3 5.8 C 0 km/h
Sensor: Nr:Datum:Temp:Abs-Feuchte:Windchill:Wind:
Aussen-T/F 351 10-04-2007 05:11:01 5.9 C 5.7 g/m*3 5.9 C 0 km/h
352 10-04-2007 05:16:02 5.9 C 5.7 g/m*3 5.9 C 0 km/h
353 10-04-2007 05:21:02 5.9 C 5.7 g/m*3 5.9 C 0 km/h
354 10-04-2007 05:26:02 5.9 C 5.62 g/m*3 5.9 C 0 km/h
355 10-04-2007 05:31:02 5.9 C 5.62 g/m*3 5.9 C 0 km/h
356 10-04-2007 05:36:02 5.9 C 5.62 g/m*3 5.9 C 0 km/h
357 10-04-2007 05:41:02 5.9 C 5.62 g/m*3 5.9 C 0 km/h
358 10-04-2007 05:46:01 5.9 C 5.62 g/m*3 5.9 C 0 km/h
359 10-04-2007 05:51:01 5.9 C 5.62 g/m*3 5.9 C 0 km/h
360 10-04-2007 05:56:01 6 C 5.59 g/m*3 6 C 0 km/h
361 10-04-2007 06:01:01 5.9 C 5.62 g/m*3 5.9 C 0 km/h
362 10-04-2007 06:06:01 6 C 5.59 g/m*3 6 C 0 km/h
363 10-04-2007 06:11:01 6.1 C 5.63 g/m*3 6.1 C 0 km/h
364 10-04-2007 06:16:02 6.2 C 5.66 g/m*3 6.2 C 0 km/h
365 10-04-2007 06:21:02 6.3 C 5.63 g/m*3 6.3 C 0 km/h
366 10-04-2007 06:26:02 6.3 C 5.63 g/m*3 6.3 C 0 km/h
367 10-04-2007 06:31:02 6.3 C 5.63 g/m*3 6.3 C 0 km/h
368 10-04-2007 06:36:02 6.1 C 5.55 g/m*3 6.1 C 0 km/h
369 10-04-2007 06:41:02 6.2 C 5.59 g/m*3 6.2 C 0 km/h
370 10-04-2007 06:46:01 6 C 5.52 g/m*3 6 C 0 km/h
371 10-04-2007 06:51:01 6 C 5.59 g/m*3 6 C 0 km/h
372 10-04-2007 06:56:01 6 C 5.59 g/m*3 6 C 0 km/h
373 10-04-2007 07:01:02 6 C 5.59 g/m*3 6 C 0 km/h
374 10-04-2007 07:06:02 6 C 5.66 g/m*3 6 C 0 km/h
375 10-04-2007 07:11:02 6 C 5.66 g/m*3 6 C 0 km/h
Sensor: Nr:Datum:Temp:Abs-Feuchte:Windchill:Wind:
Aussen-T/F 376 10-04-2007 07:16:02 6.1 C 5.63 g/m*3 6.1 C 0 km/h
377 10-04-2007 07:21:02 6.2 C 5.66 g/m*3 6.2 C 0 km/h
378 10-04-2007 07:26:02 6.2 C 5.66 g/m*3 6.2 C 0 km/h
379 10-04-2007 07:31:01 6.3 C 5.7 g/m*3 6.3 C 0 km/h
380 10-04-2007 07:36:01 6.3 C 5.7 g/m*3 6.3 C 0 km/h
381 10-04-2007 07:41:01 6.1 C 5.63 g/m*3 6.1 C 0 km/h
382 10-04-2007 07:46:02 6.1 C 5.7 g/m*3 6.1 C 0 km/h
383 10-04-2007 07:51:02 6.1 C 5.7 g/m*3 6.1 C 0 km/h
384 10-04-2007 07:56:02 6.2 C 5.81 g/m*3 6.2 C 0 km/h
385 10-04-2007 08:01:02 6.3 C 5.85 g/m*3 6.3 C 0 km/h
386 10-04-2007 08:06:02 6.4 C 5.81 g/m*3 6.4 C 0 km/h
387 10-04-2007 08:11:02 6.7 C 5.93 g/m*3 6.7 C 0 km/h
388 10-04-2007 08:16:01 6.9 C 5.93 g/m*3 6.9 C 0 km/h
389 10-04-2007 08:21:02 7 C 5.89 g/m*3 7 C 0 km/h
390 10-04-2007 08:26:02 7.8 C 5.88 g/m*3 7.8 C 0 km/h
391 10-04-2007 08:31:01 8 C 5.7 g/m*3 8 C 0 km/h
392 10-04-2007 08:36:01 8.1 C 5.74 g/m*3 8.1 C 0 km/h
393 10-04-2007 08:41:01 8.2 C 5.69 g/m*3 8.2 C 0 km/h
394 10-04-2007 08:46:01 8.1 C 5.66 g/m*3 8.1 C 0 km/h
395 10-04-2007 08:51:01 8.2 C 5.69 g/m*3 8.2 C 0 km/h
396 10-04-2007 08:56:01 8.2 C 5.69 g/m*3 8.2 C 0 km/h
397 10-04-2007 09:01:02 8.2 C 5.78 g/m*3 8.2 C 0 km/h
398 10-04-2007 09:06:02 8.2 C 5.78 g/m*3 8.2 C 0 km/h
399 10-04-2007 09:11:02 8.4 C 5.94 g/m*3 8.4 C 0 km/h
400 10-04-2007 09:16:02 8.5 C 5.89 g/m*3 8.5 C 0 km/h
Sensor: Nr:Datum:Temp:Abs-Feuchte:Windchill:Wind:
Aussen-T/F 401 10-04-2007 09:21:02 8.4 C 5.85 g/m*3 8.4 C 0 km/h
402 10-04-2007 09:26:02 8.5 C 5.89 g/m*3 8.5 C 0 km/h
403 10-04-2007 09:31:01 8.5 C 5.89 g/m*3 8.5 C 0 km/h
404 10-04-2007 09:36:01 8.6 C 5.93 g/m*3 8.6 C 0 km/h
405 10-04-2007 09:41:02 8.6 C 5.93 g/m*3 8.6 C 0 km/h
406 10-04-2007 09:46:02 8.7 C 5.97 g/m*3 8.7 C 0 km/h
407 10-04-2007 09:51:02 8.8 C 6.01 g/m*3 8.8 C 0 km/h
408 10-04-2007 09:56:02 8.8 C 6.01 g/m*3 8.8 C 0 km/h
409 10-04-2007 10:01:02 9 C 5.99 g/m*3 9 C 0 km/h
410 10-04-2007 10:06:02 9.3 C 6.02 g/m*3 9.3 C 0 km/h
411 10-04-2007 10:11:02 9.5 C 6.1 g/m*3 9.5 C 0 km/h
412 10-04-2007 10:16:02 9.7 C 6.08 g/m*3 9.7 C 0 km/h
413 10-04-2007 10:21:02 9.8 C 6.12 g/m*3 9.8 C 0 km/h
414 10-04-2007 10:26:02 10.1 C 6.15 g/m*3 10.1 C 0 km/h
415 10-04-2007 10:31:01 10.2 C 6.09 g/m*3 10.2 C 0 km/h
416 10-04-2007 10:36:01 10.2 C 6 g/m*3 10.2 C 0 km/h
417 10-04-2007 10:41:01 10.7 C 6.19 g/m*3 10.7 C 0 km/h
418 10-04-2007 10:46:02 10.8 C 6.13 g/m*3 10.8 C 0 km/h
419 10-04-2007 10:51:02 11 C 6.01 g/m*3 11 C 0 km/h
420 10-04-2007 10:56:02 11.2 C 6.08 g/m*3 11.2 C 0 km/h
421 10-04-2007 11:01:01 11.4 C 6.06 g/m*3 11.4 C 0 km/h
422 10-04-2007 11:06:01 11.6 C 6.13 g/m*3 11.6 C 0 km/h
423 10-04-2007 11:11:01 11.7 C 6.07 g/m*3 11.7 C 0 km/h
424 10-04-2007 11:16:01 11.9 C 6.14 g/m*3 11.9 C 0 km/h
425 10-04-2007 11:21:01 12.1 C 6.11 g/m*3 12.1 C 0 km/h
Sensor: Nr:Datum:Temp:Abs-Feuchte:Windchill:Wind:
Aussen-T/F 426 10-04-2007 11:26:01 12.5 C 6.16 g/m*3 12.5 C 0 km/h
427 10-04-2007 11:31:02 12.8 C 6.16 g/m*3 12.8 C 0 km/h
428 10-04-2007 11:36:02 13.1 C 6.16 g/m*3 13.1 C 0 km/h
429 10-04-2007 11:41:02 13.5 C 6.2 g/m*3 13.5 C 0 km/h
430 10-04-2007 11:46:02 13.9 C 6.11 g/m*3 13.9 C 0 km/h
431 10-04-2007 11:51:02 14.1 C 6.07 g/m*3 14.1 C 0 km/h
432 10-04-2007 11:56:02 14.2 C 5.98 g/m*3 14.2 C 0 km/h
433 10-04-2007 12:01:02 14.2 C 5.98 g/m*3 14.2 C 0 km/h
434 10-04-2007 12:06:02 14.5 C 6.09 g/m*3 14.5 C 0 km/h
435 10-04-2007 12:11:02 14.8 C 6.08 g/m*3 14.8 C 0 km/h
436 10-04-2007 12:16:01 15.4 C 5.91 g/m*3 15.4 C 0 km/h
437 10-04-2007 12:21:01 15.6 C 5.98 g/m*3 15.6 C 0 km/h
438 10-04-2007 12:26:01 16 C 5.99 g/m*3 16 C 0 km/h
439 10-04-2007 12:31:01 16.3 C 5.97 g/m*3 16.3 C 0 km/h
440 10-04-2007 12:36:01 16.1 C 5.89 g/m*3 16.1 C 0 km/h
441 10-04-2007 12:41:01 16.6 C 6.07 g/m*3 16.6 C 0 km/h
442 10-04-2007 12:46:02 16.8 C 6.15 g/m*3 16.8 C 0 km/h
443 10-04-2007 12:51:02 17.5 C 6.11 g/m*3 17.5 C 0 km/h
444 10-04-2007 12:56:02 17.4 C 6.08 g/m*3 17.4 C 0 km/h
445 10-04-2007 13:01:01 17.2 C 6 g/m*3 17.2 C 0 km/h
446 10-04-2007 13:06:01 17.3 C 6.19 g/m*3 17.3 C 0 km/h
447 10-04-2007 13:11:01 17.5 C 6.26 g/m*3 17.5 C 0 km/h
448 10-04-2007 13:16:01 18 C 6.14 g/m*3 18 C 0 km/h
449 10-04-2007 13:21:01 18.2 C 6.22 g/m*3 18.2 C 0 km/h
450 10-04-2007 13:26:01 18.6 C 6.37 g/m*3 18.6 C 0 km/h
Sensor: Nr:Datum:Temp:Abs-Feuchte:Windchill:Wind:
Aussen-T/F 451 10-04-2007 13:31:02 18.8 C 6.12 g/m*3 18.8 C 0 km/h
452 10-04-2007 13:36:02 18.7 C 6.24 g/m*3 18.7 C 0 km/h
453 10-04-2007 13:41:02 18.8 C 6.28 g/m*3 18.8 C 0 km/h
454 10-04-2007 13:46:01 18.7 C 6.24 g/m*3 18.7 C 0 km/h
455 10-04-2007 13:51:01 18.3 C 5.94 g/m*3 18.3 C 0 km/h
456 10-04-2007 13:56:01 18 C 5.68 g/m*3 18 C 0 km/h
457 10-04-2007 14:01:01 18 C 5.68 g/m*3 18 C 0 km/h
458 10-04-2007 14:06:01 18.4 C 5.82 g/m*3 18.4 C 0 km/h
459 10-04-2007 14:11:01 18 C 5.68 g/m*3 18 C 0 km/h
460 10-04-2007 14:16:02 18.1 C 5.72 g/m*3 18.1 C 0 km/h
461 10-04-2007 14:21:02 17.9 C 5.8 g/m*3 17.9 C 0 km/h
462 10-04-2007 14:26:02 18.2 C 5.91 g/m*3 18.2 C 0 km/h
463 10-04-2007 14:31:02 18.3 C 5.94 g/m*3 18.3 C 0 km/h
464 10-04-2007 14:36:02 18.2 C 5.91 g/m*3 18.2 C 0 km/h
465 10-04-2007 14:41:02 18.3 C 5.94 g/m*3 18.3 C 0 km/h
466 10-04-2007 14:46:01 19.3 C 5.97 g/m*3 19.3 C 0 km/h
467 10-04-2007 14:51:01 19.3 C 5.97 g/m*3 19.3 C 0 km/h
468 10-04-2007 14:56:01 19.1 C 5.9 g/m*3 19.1 C 0 km/h
469 10-04-2007 15:01:02 19.3 C 5.97 g/m*3 19.3 C 0 km/h
470 10-04-2007 15:06:02 19.2 C 5.94 g/m*3 19.2 C 0 km/h
471 10-04-2007 15:11:02 19.2 C 5.94 g/m*3 19.2 C 0 km/h
472 10-04-2007 15:16:02 19.2 C 5.94 g/m*3 19.2 C 0 km/h
473 10-04-2007 15:21:02 18.7 C 5.92 g/m*3 18.7 C 0 km/h
474 10-04-2007 15:26:02 18.8 C 5.96 g/m*3 18.8 C 0 km/h
475 10-04-2007 15:31:01 18.7 C 6.08 g/m*3 18.7 C 0 km/h
Sensor: Nr:Datum:Temp:Abs-Feuchte:Windchill:Wind:
Aussen-T/F 476 10-04-2007 15:36:01 18.4 C 6.13 g/m*3 18.4 C 0 km/h
477 10-04-2007 15:41:01 18.5 C 6.17 g/m*3 18.5 C 0 km/h
478 10-04-2007 15:46:02 18.7 C 6.24 g/m*3 18.7 C 0 km/h
479 10-04-2007 15:51:02 18.6 C 6.05 g/m*3 18.6 C 0 km/h
480 10-04-2007 15:56:02 18.6 C 5.89 g/m*3 18.6 C 0 km/h
481 10-04-2007 16:01:02 18.5 C 6.01 g/m*3 18.5 C 0 km/h
482 10-04-2007 16:06:02 18.4 C 5.98 g/m*3 18.4 C 0 km/h
483 10-04-2007 16:11:02 18.3 C 6.1 g/m*3 18.3 C 0 km/h
484 10-04-2007 16:16:01 18.2 C 6.06 g/m*3 18.2 C 0 km/h
485 10-04-2007 16:21:01 18.1 C 6.18 g/m*3 18.1 C 0 km/h
486 10-04-2007 16:26:02 17.9 C 6.11 g/m*3 17.9 C 0 km/h
487 10-04-2007 16:31:01 17.7 C 6.19 g/m*3 17.7 C 0 km/h
488 10-04-2007 16:36:01 17.3 C 6.04 g/m*3 17.3 C 0 km/h
489 10-04-2007 16:41:01 17.6 C 6.15 g/m*3 17.6 C 0 km/h
490 10-04-2007 16:46:02 17.8 C 6.37 g/m*3 17.8 C 0 km/h
491 10-04-2007 16:51:02 18.1 C 6.33 g/m*3 18.1 C 0 km/h
492 10-04-2007 16:56:02 18.2 C 6.22 g/m*3 18.2 C 0 km/h
493 10-04-2007 17:01:01 18 C 6.14 g/m*3 18 C 0 km/h
494 10-04-2007 17:06:01 17.9 C 6.11 g/m*3 17.9 C 0 km/h
495 10-04-2007 17:11:02 17.9 C 6.11 g/m*3 17.9 C 0 km/h
496 10-04-2007 17:16:01 17.9 C 6.11 g/m*3 17.9 C 0 km/h
497 10-04-2007 17:21:01 18.1 C 6.03 g/m*3 18.1 C 0 km/h
498 10-04-2007 17:26:01 17.9 C 6.11 g/m*3 17.9 C 0 km/h
499 10-04-2007 17:31:01 17.6 C 6 g/m*3 17.6 C 0 km/h
500 10-04-2007 17:36:01 17.7 C 6.19 g/m*3 17.7 C 0 km/h
Sensor: Nr:Datum:Temp:Abs-Feuchte:Windchill:Wind:
Aussen-T/F 501 10-04-2007 17:41:01 17.8 C 6.22 g/m*3 17.8 C 0 km/h
502 10-04-2007 17:46:02 17.8 C 6.22 g/m*3 17.8 C 0 km/h
503 10-04-2007 17:51:02 18 C 6.14 g/m*3 18 C 0 km/h
504 10-04-2007 17:56:02 17.7 C 6.19 g/m*3 17.7 C 0 km/h
505 10-04-2007 18:01:01 17.5 C 6.26 g/m*3 17.5 C 0 km/h
506 10-04-2007 18:06:01 17.5 C 6.26 g/m*3 17.5 C 0 km/h
507 10-04-2007 18:11:02 17.5 C 6.26 g/m*3 17.5 C 0 km/h
508 10-04-2007 18:16:01 17.5 C 6.26 g/m*3 17.5 C 0 km/h
509 10-04-2007 18:21:01 17.1 C 6.11 g/m*3 17.1 C 0 km/h
510 10-04-2007 18:26:01 17.2 C 6.15 g/m*3 17.2 C 0 km/h
511 10-04-2007 18:31:01 17.1 C 6.11 g/m*3 17.1 C 0 km/h
512 10-04-2007 18:36:01 17.1 C 6.11 g/m*3 17.1 C 0 km/h
513 10-04-2007 18:41:01 17.2 C 6.15 g/m*3 17.2 C 0 km/h
514 10-04-2007 18:46:01 17.2 C 6.15 g/m*3 17.2 C 0 km/h
515 10-04-2007 18:51:02 16.9 C 6.33 g/m*3 16.9 C 0 km/h
516 10-04-2007 18:56:02 16.8 C 6.29 g/m*3 16.8 C 0 km/h
517 10-04-2007 19:01:01 16.8 C 6.29 g/m*3 16.8 C 0 km/h
518 10-04-2007 19:06:01 16.8 C 6.29 g/m*3 16.8 C 0 km/h
519 10-04-2007 19:11:01 16.7 C 6.25 g/m*3 16.7 C 0 km/h
520 10-04-2007 19:16:01 16.6 C 6.36 g/m*3 16.6 C 0 km/h
521 10-04-2007 19:21:01 16.4 C 6.28 g/m*3 16.4 C 0 km/h
522 10-04-2007 19:26:01 16.3 C 6.24 g/m*3 16.3 C 0 km/h
523 10-04-2007 19:31:02 16.2 C 6.21 g/m*3 16.2 C 0 km/h
524 10-04-2007 19:36:02 16.2 C 6.21 g/m*3 16.2 C 0 km/h
525 10-04-2007 19:41:02 16 C 6.27 g/m*3 16 C 0 km/h
Sensor: Nr:Datum:Temp:Abs-Feuchte:Windchill:Wind:
Aussen-T/F 526 10-04-2007 19:46:01 16 C 6.27 g/m*3 16 C 0 km/h
527 10-04-2007 19:51:02 15.9 C 6.37 g/m*3 15.9 C 0 km/h
528 10-04-2007 19:56:02 15.6 C 6.38 g/m*3 15.6 C 0 km/h
529 10-04-2007 20:01:01 15.5 C 6.34 g/m*3 15.5 C 0 km/h
530 10-04-2007 20:06:01 15.3 C 6.4 g/m*3 15.3 C 0 km/h
531 10-04-2007 20:11:01 15.1 C 6.45 g/m*3 15.1 C 0 km/h
532 10-04-2007 20:16:01 14.9 C 6.5 g/m*3 14.9 C 0 km/h
533 10-04-2007 20:21:01 14.9 C 6.5 g/m*3 14.9 C 0 km/h
534 10-04-2007 20:26:01 14.8 C 6.59 g/m*3 14.8 C 0 km/h
535 10-04-2007 20:31:02 14.5 C 6.59 g/m*3 14.5 C 0 km/h
536 10-04-2007 20:36:02 14.4 C 6.55 g/m*3 14.4 C 0 km/h
537 10-04-2007 20:41:02 14.1 C 6.55 g/m*3 14.1 C 0 km/h
538 10-04-2007 20:46:01 13.8 C 6.55 g/m*3 13.8 C 0 km/h
539 10-04-2007 20:51:01 13.7 C 6.63 g/m*3 13.7 C 0 km/h
540 10-04-2007 20:56:02 13.5 C 6.55 g/m*3 13.5 C 0 km/h
541 10-04-2007 21:01:01 13.2 C 6.54 g/m*3 13.2 C 0 km/h
542 10-04-2007 21:06:01 13.1 C 6.5 g/m*3 13.1 C 0 km/h
543 10-04-2007 21:11:01 13 C 6.58 g/m*3 13 C 0 km/h
544 10-04-2007 21:16:01 12.8 C 6.72 g/m*3 12.8 C 0 km/h
545 10-04-2007 21:21:01 12.7 C 6.79 g/m*3 12.7 C 0 km/h
546 10-04-2007 21:26:01 12.6 C 6.75 g/m*3 12.6 C 0 km/h
547 10-04-2007 21:31:02 12.5 C 6.82 g/m*3 12.5 C 0 km/h
548 10-04-2007 21:36:02 12.3 C 6.73 g/m*3 12.3 C 0 km/h
549 10-04-2007 21:41:02 12.3 C 6.73 g/m*3 12.3 C 0 km/h
550 10-04-2007 21:46:01 12.1 C 6.76 g/m*3 12.1 C 0 km/h
Sensor: Nr:Datum:Temp:Abs-Feuchte:Windchill:Wind:
Aussen-T/F 551 10-04-2007 21:51:01 12 C 6.71 g/m*3 12 C 0 km/h
552 10-04-2007 21:56:01 12.1 C 6.86 g/m*3 12.1 C 0 km/h
553 10-04-2007 22:01:01 12 C 6.82 g/m*3 12 C 0 km/h
554 10-04-2007 22:06:01 11.9 C 6.88 g/m*3 11.9 C 0 km/h
555 10-04-2007 22:11:01 11.8 C 6.95 g/m*3 11.8 C 0 km/h
556 10-04-2007 22:16:01 11.9 C 6.88 g/m*3 11.9 C 0 km/h
557 10-04-2007 22:21:01 11.6 C 6.76 g/m*3 11.6 C 0 km/h
558 10-04-2007 22:26:01 11.4 C 6.77 g/m*3 11.4 C 0 km/h
559 10-04-2007 22:31:02 11.4 C 6.77 g/m*3 11.4 C 0 km/h
560 10-04-2007 22:36:02 11.3 C 6.83 g/m*3 11.3 C 0 km/h
561 10-04-2007 22:41:02 11.2 C 6.79 g/m*3 11.2 C 0 km/h
562 10-04-2007 22:46:01 11.2 C 6.79 g/m*3 11.2 C 0 km/h
563 10-04-2007 22:51:01 11.1 C 6.75 g/m*3 11.1 C 0 km/h
564 10-04-2007 22:56:01 11 C 6.81 g/m*3 11 C 0 km/h
565 10-04-2007 23:01:02 11 C 6.81 g/m*3 11 C 0 km/h
566 10-04-2007 23:06:02 10.8 C 6.92 g/m*3 10.8 C 0 km/h
567 10-04-2007 23:11:02 10.7 C 6.88 g/m*3 10.7 C 0 km/h
568 10-04-2007 23:16:02 10.6 C 6.83 g/m*3 10.6 C 0 km/h
569 10-04-2007 23:21:02 10.5 C 6.79 g/m*3 10.5 C 0 km/h
570 10-04-2007 23:26:02 10.5 C 6.79 g/m*3 10.5 C 0 km/h
571 10-04-2007 23:31:01 10.3 C 6.8 g/m*3 10.3 C 0 km/h
572 10-04-2007 23:36:02 10.2 C 6.85 g/m*3 10.2 C 0 km/h
573 10-04-2007 23:41:02 10 C 6.86 g/m*3 10 C 0 km/h
574 10-04-2007 23:46:01 9.9 C 6.91 g/m*3 9.9 C 0 km/h
575 10-04-2007 23:51:01 9.9 C 6.91 g/m*3 9.9 C 0 km/h
Sensor: Nr:Datum:Temp:Abs-Feuchte:Windchill:Wind:
Aussen-T/F 576 10-04-2007 23:56:01 9.8 C 6.96 g/m*3 9.8 C 0 km/h
577 11-04-2007 00:01:02 9.7 C 6.91 g/m*3 9.7 C 0 km/h
578 11-04-2007 00:06:02 9.7 C 6.91 g/m*3 9.7 C 0 km/h
579 11-04-2007 00:11:02 9.7 C 6.91 g/m*3 9.7 C 0 km/h
580 11-04-2007 00:16:02 9.7 C 6.91 g/m*3 9.7 C 0 km/h
581 11-04-2007 00:21:02 9.6 C 6.96 g/m*3 9.6 C 0 km/h
582 11-04-2007 00:26:02 9.5 C 6.92 g/m*3 9.5 C 0 km/h
583 11-04-2007 00:31:02 9.6 C 6.96 g/m*3 9.6 C 0 km/h
584 11-04-2007 00:36:02 9.6 C 6.96 g/m*3 9.6 C 0 km/h
585 11-04-2007 00:41:02 9.6 C 6.96 g/m*3 9.6 C 0 km/h
586 11-04-2007 00:46:02 9.6 C 6.96 g/m*3 9.6 C 0 km/h
587 11-04-2007 00:51:02 9.6 C 6.96 g/m*3 9.6 C 0 km/h
588 11-04-2007 00:56:02 9.5 C 6.92 g/m*3 9.5 C 0 km/h
589 11-04-2007 01:01:01 9.5 C 6.92 g/m*3 9.5 C 0 km/h
590 11-04-2007 01:06:01 9.3 C 6.92 g/m*3 9.3 C 0 km/h
591 11-04-2007 01:11:01 9.3 C 6.92 g/m*3 9.3 C 0 km/h
592 11-04-2007 01:16:02 9.3 C 6.92 g/m*3 9.3 C 0 km/h
593 11-04-2007 01:21:02 9.3 C 6.92 g/m*3 9.3 C 0 km/h
594 11-04-2007 01:26:02 9.4 C 6.96 g/m*3 9.4 C 0 km/h
595 11-04-2007 01:31:01 9.5 C 7.01 g/m*3 9.5 C 0 km/h
596 11-04-2007 01:36:02 9.4 C 6.87 g/m*3 9.4 C 0 km/h
597 11-04-2007 01:41:02 9.4 C 6.87 g/m*3 9.4 C 0 km/h
598 11-04-2007 01:46:01 9.4 C 6.96 g/m*3 9.4 C 0 km/h
599 11-04-2007 01:51:01 9.6 C 6.96 g/m*3 9.6 C 0 km/h
600 11-04-2007 01:56:01 9.6 C 6.96 g/m*3 9.6 C 0 km/h
Sensor: Nr:Datum:Temp:Abs-Feuchte:Windchill:Wind:
Aussen-T/F 601 11-04-2007 02:01:01 9.6 C 6.96 g/m*3 9.6 C 0 km/h
602 11-04-2007 02:06:01 9.6 C 6.96 g/m*3 9.6 C 0 km/h
603 11-04-2007 02:11:01 9.6 C 6.96 g/m*3 9.6 C 0 km/h
604 11-04-2007 02:16:02 9.3 C 6.92 g/m*3 9.3 C 0 km/h
605 11-04-2007 02:21:02 9.4 C 6.96 g/m*3 9.4 C 0 km/h
606 11-04-2007 02:26:02 9.5 C 6.92 g/m*3 9.5 C 0 km/h
607 11-04-2007 02:31:02 9.7 C 7.01 g/m*3 9.7 C 0 km/h
608 11-04-2007 02:36:02 9.6 C 6.96 g/m*3 9.6 C 0 km/h
609 11-04-2007 02:41:02 9.5 C 6.92 g/m*3 9.5 C 0 km/h
610 11-04-2007 02:46:02 9.1 C 6.74 g/m*3 9.1 C 0 km/h
611 11-04-2007 02:51:02 9.1 C 6.74 g/m*3 9.1 C 0 km/h
612 11-04-2007 02:56:02 9 C 6.7 g/m*3 9 C 0 km/h
613 11-04-2007 03:01:02 8.7 C 6.75 g/m*3 8.7 C 0 km/h
614 11-04-2007 03:06:02 8.7 C 6.75 g/m*3 8.7 C 0 km/h
615 11-04-2007 03:11:02 8.3 C 6.74 g/m*3 8.3 C 0 km/h
616 11-04-2007 03:16:02 8.2 C 6.78 g/m*3 8.2 C 0 km/h
617 11-04-2007 03:21:02 8.1 C 6.74 g/m*3 8.1 C 0 km/h
618 11-04-2007 03:26:02 8.1 C 6.74 g/m*3 8.1 C 0 km/h
619 11-04-2007 03:31:02 7.9 C 6.82 g/m*3 7.9 C 0 km/h
620 11-04-2007 03:36:02 7.9 C 6.82 g/m*3 7.9 C 0 km/h
621 11-04-2007 03:41:02 7.7 C 6.73 g/m*3 7.7 C 0 km/h
622 11-04-2007 03:46:02 7.7 C 6.73 g/m*3 7.7 C 0 km/h
623 11-04-2007 03:51:02 7.5 C 6.64 g/m*3 7.5 C 0 km/h
624 11-04-2007 03:56:02 7.5 C 6.64 g/m*3 7.5 C 0 km/h
625 11-04-2007 04:01:02 7.4 C 6.6 g/m*3 7.4 C 0 km/h
Sensor: Nr:Datum:Temp:Abs-Feuchte:Windchill:Wind:
Aussen-T/F 626 11-04-2007 04:06:02 7.3 C 6.64 g/m*3 7.3 C 0 km/h
627 11-04-2007 04:11:02 7.2 C 6.59 g/m*3 7.2 C 0 km/h
628 11-04-2007 04:16:02 7.1 C 6.55 g/m*3 7.1 C 0 km/h
629 11-04-2007 04:21:02 7.1 C 6.55 g/m*3 7.1 C 0 km/h
630 11-04-2007 04:26:02 7.2 C 6.67 g/m*3 7.2 C 0 km/h
631 11-04-2007 04:31:02 7.2 C 6.67 g/m*3 7.2 C 0 km/h
632 11-04-2007 04:36:02 7 C 6.59 g/m*3 7 C 0 km/h
633 11-04-2007 04:41:02 6.9 C 6.62 g/m*3 6.9 C 0 km/h
634 11-04-2007 04:46:01 6.9 C 6.62 g/m*3 6.9 C 0 km/h
635 11-04-2007 04:51:02 6.8 C 6.65 g/m*3 6.8 C 0 km/h
636 11-04-2007 04:56:02 6.8 C 6.65 g/m*3 6.8 C 0 km/h
637 11-04-2007 05:01:02 6.7 C 6.61 g/m*3 6.7 C 0 km/h
638 11-04-2007 05:06:02 6.7 C 6.61 g/m*3 6.7 C 0 km/h
639 11-04-2007 05:11:02 6.5 C 6.52 g/m*3 6.5 C 0 km/h
640 11-04-2007 05:16:01 6.4 C 6.48 g/m*3 6.4 C 0 km/h
641 11-04-2007 05:21:01 6.3 C 6.44 g/m*3 6.3 C 0 km/h
642 11-04-2007 05:26:01 6.2 C 6.4 g/m*3 6.2 C 0 km/h
643 11-04-2007 05:31:01 6.1 C 6.36 g/m*3 6.1 C 0 km/h
644 11-04-2007 05:36:02 6.1 C 6.36 g/m*3 6.1 C 0 km/h
645 11-04-2007 05:41:02 6 C 6.31 g/m*3 6 C 0 km/h
646 11-04-2007 05:46:02 6 C 6.31 g/m*3 6 C 0 km/h
647 11-04-2007 05:51:02 5.9 C 6.35 g/m*3 5.9 C 0 km/h
648 11-04-2007 05:56:02 5.9 C 6.35 g/m*3 5.9 C 0 km/h
649 11-04-2007 06:01:01 5.8 C 6.38 g/m*3 5.8 C 0 km/h
650 11-04-2007 06:06:02 5.8 C 6.38 g/m*3 5.8 C 0 km/h
Sensor: Nr:Datum:Temp:Abs-Feuchte:Windchill:Wind:
Aussen-T/F 651 11-04-2007 06:11:02 5.8 C 6.38 g/m*3 5.8 C 0 km/h
652 11-04-2007 06:16:01 5.7 C 6.33 g/m*3 5.7 C 0 km/h
653 11-04-2007 06:21:01 5.6 C 6.29 g/m*3 5.6 C 0 km/h
654 11-04-2007 06:26:01 5.6 C 6.22 g/m*3 5.6 C 0 km/h
655 11-04-2007 06:31:01 5.4 C 6.14 g/m*3 5.4 C 0 km/h
656 11-04-2007 06:36:01 5.3 C 6.17 g/m*3 5.3 C 0 km/h
657 11-04-2007 06:41:01 5.3 C 6.17 g/m*3 5.3 C 0 km/h
658 11-04-2007 06:46:02 5.1 C 6.09 g/m*3 5.1 C 0 km/h
659 11-04-2007 06:51:02 5.1 C 6.09 g/m*3 5.1 C 0 km/h
660 11-04-2007 06:56:02 5.1 C 6.09 g/m*3 5.1 C 0 km/h
661 11-04-2007 07:01:01 5 C 6.05 g/m*3 5 C 0 km/h
662 11-04-2007 07:06:01 5 C 6.05 g/m*3 5 C 0 km/h
663 11-04-2007 07:11:01 5 C 6.05 g/m*3 5 C 0 km/h
664 11-04-2007 07:16:01 5 C 6.05 g/m*3 5 C 0 km/h
665 11-04-2007 07:21:01 5 C 6.05 g/m*3 5 C 0 km/h
666 11-04-2007 07:26:01 4.9 C 6.08 g/m*3 4.9 C 0 km/h
667 11-04-2007 07:31:02 4.9 C 6.08 g/m*3 4.9 C 0 km/h
668 11-04-2007 07:36:02 5 C 6.12 g/m*3 5 C 0 km/h
669 11-04-2007 07:41:02 5 C 6.12 g/m*3 5 C 0 km/h
670 11-04-2007 07:46:01 5 C 6.12 g/m*3 5 C 0 km/h
671 11-04-2007 07:51:01 5.1 C 6.16 g/m*3 5.1 C 0 km/h
672 11-04-2007 07:56:01 5.2 C 6.2 g/m*3 5.2 C 0 km/h
673 11-04-2007 08:01:01 5.1 C 6.16 g/m*3 5.1 C 0 km/h
674 11-04-2007 08:06:01 5.3 C 6.24 g/m*3 5.3 C 0 km/h
675 11-04-2007 08:11:01 5.4 C 6.28 g/m*3 5.4 C 0 km/h
Sensor: Nr:Datum:Temp:Abs-Feuchte:Windchill:Wind:
Aussen-T/F 676 11-04-2007 08:16:01 5.5 C 6.32 g/m*3 5.5 C 0 km/h
677 11-04-2007 08:21:01 5.5 C 6.32 g/m*3 5.5 C 0 km/h
678 11-04-2007 08:26:01 5.6 C 6.36 g/m*3 5.6 C 0 km/h
679 11-04-2007 08:31:02 5.6 C 6.36 g/m*3 5.6 C 0 km/h
680 11-04-2007 08:36:02 5.6 C 6.29 g/m*3 5.6 C 0 km/h
681 11-04-2007 08:41:02 5.6 C 6.29 g/m*3 5.6 C 0 km/h
682 11-04-2007 09:00:01 5.9 C 6.49 g/m*3 5.9 C 0 km/h
683 11-04-2007 09:15:02 6.3 C 6.59 g/m*3 6.3 C 0 km/h
684 11-04-2007 09:30:02 6.5 C 6.67 g/m*3 6.5 C 0 km/h
685 11-04-2007 09:45:02 6.9 C 6.77 g/m*3 6.9 C 0 km/h
686 11-04-2007 10:00:02 7.5 C 6.88 g/m*3 7.5 C 0 km/h
687 11-04-2007 10:15:02 8.3 C 7 g/m*3 8.3 C 0 km/h
688 11-04-2007 10:30:02 9.2 C 7.05 g/m*3 9.2 C 0 km/h
689 11-04-2007 10:50:01 10.3 C 7.18 g/m*3 10.3 C 0 km/h
690 11-04-2007 11:05:01 11.4 C 7.08 g/m*3 11.4 C 0 km/h
691 11-04-2007 11:20:01 13 C 7.03 g/m*3 13 C 0 km/h
692 11-04-2007 11:35:01 14.2 C 6.35 g/m*3 14.2 C 0 km/h
693 11-04-2007 11:50:01 14.9 C 6.25 g/m*3 14.9 C 0 km/h
694 11-04-2007 12:05:01 15.6 C 5.98 g/m*3 15.6 C 0 km/h
695 11-04-2007 12:20:01 16.1 C 6.03 g/m*3 16.1 C 0 km/h
696 11-04-2007 12:35:01 16.1 C 5.62 g/m*3 16.1 C 0 km/h
697 11-04-2007 12:50:01 16.3 C 5.83 g/m*3 16.3 C 0 km/h
698 11-04-2007 13:05:01 17.3 C 5.89 g/m*3 17.3 C 0 km/h
699 11-04-2007 13:20:01 17 C 5.64 g/m*3 17 C 0 km/h
700 11-04-2007 13:35:01 17.6 C 5.55 g/m*3 17.6 C 0 km/h
Sensor: Nr:Datum:Temp:Abs-Feuchte:Windchill:Wind:
Aussen-T/F 701 11-04-2007 13:50:01 18.1 C 5.41 g/m*3 18.1 C 0 km/h
702 11-04-2007 14:05:01 18.9 C 5.67 g/m*3 18.9 C 0 km/h
703 11-04-2007 14:20:01 19.7 C 5.43 g/m*3 19.7 C 0 km/h
704 11-04-2007 14:35:02 20.8 C 5.43 g/m*3 20.8 C 0 km/h
705 11-04-2007 14:50:02 20.8 C 5.25 g/m*3 20.8 C 0 km/h
706 11-04-2007 15:05:02 21.9 C 5.21 g/m*3 21.9 C 0 km/h
707 11-04-2007 15:20:02 22.6 C 5.22 g/m*3 22.6 C 0 km/h
708 11-04-2007 15:35:02 23.3 C 5.02 g/m*3 23.3 C 0 km/h
709 11-04-2007 15:50:02 22.3 C 4.94 g/m*3 22.3 C 0 km/h
710 11-04-2007 16:05:02 22.9 C 5.11 g/m*3 22.9 C 0 km/h
711 11-04-2007 16:20:02 23 C 4.73 g/m*3 23 C 0 km/h
712 11-04-2007 16:35:02 23 C 5.14 g/m*3 23 C 0 km/h
713 11-04-2007 16:50:02 24.8 C 5.01 g/m*3 24.8 C 0 km/h
714 11-04-2007 17:05:02 24.7 C 4.98 g/m*3 24.7 C 0 km/h
715 11-04-2007 17:20:02 25 C 4.6 g/m*3 25 C 0 km/h
716 11-04-2007 17:35:02 24.7 C 4.75 g/m*3 24.7 C 0 km/h
717 11-04-2007 17:50:02 24.1 C 4.59 g/m*3 24.1 C 0 km/h
718 11-04-2007 18:05:02 23.5 C 4.86 g/m*3 23.5 C 0 km/h
719 11-04-2007 18:20:02 23.1 C 4.96 g/m*3 23.1 C 0 km/h
720 11-04-2007 18:35:02 23 C 5.14 g/m*3 23 C 0 km/h
721 11-04-2007 18:50:02 22.5 C 5.19 g/m*3 22.5 C 0 km/h
722 11-04-2007 19:05:02 22.6 C 5.22 g/m*3 22.6 C 0 km/h
723 11-04-2007 19:20:03 22 C 5.43 g/m*3 22 C 0 km/h
724 11-04-2007 19:35:03 20.6 C 5.73 g/m*3 20.6 C 0 km/h
725 11-04-2007 19:50:03 20 C 5.88 g/m*3 20 C 0 km/h
Sensor: Nr:Datum:Temp:Abs-Feuchte:Windchill:Wind:
Aussen-T/F 726 11-04-2007 20:05:03 19.5 C 6.21 g/m*3 19.5 C 0 km/h
727 11-04-2007 20:20:03 18.4 C 6.29 g/m*3 18.4 C 0 km/h
728 11-04-2007 20:35:03 17.7 C 6.34 g/m*3 17.7 C 0 km/h
729 11-04-2007 20:50:03 16.9 C 6.33 g/m*3 16.9 C 0 km/h
730 11-04-2007 21:05:03 16.3 C 6.38 g/m*3 16.3 C 0 km/h
731 11-04-2007 21:20:03 16 C 6.4 g/m*3 16 C 0 km/h
732 11-04-2007 21:35:03 15.4 C 6.31 g/m*3 15.4 C 0 km/h
733 11-04-2007 21:50:03 15 C 6.15 g/m*3 15 C 0 km/h
734 11-04-2007 22:05:03 14.8 C 6.21 g/m*3 14.8 C 0 km/h
735 11-04-2007 22:20:03 14.4 C 6.18 g/m*3 14.4 C 0 km/h
736 11-04-2007 22:35:03 14 C 6.27 g/m*3 14 C 0 km/h
737 11-04-2007 22:50:03 13.7 C 6.28 g/m*3 13.7 C 0 km/h
738 11-04-2007 23:05:03 13.5 C 6.43 g/m*3 13.5 C 0 km/h
739 11-04-2007 23:20:03 13.2 C 6.43 g/m*3 13.2 C 0 km/h
740 11-04-2007 23:35:03 12.8 C 6.5 g/m*3 12.8 C 0 km/h
741 11-04-2007 23:50:04 12.4 C 6.45 g/m*3 12.4 C 0 km/h
742 12-04-2007 00:05:04 12.2 C 6.47 g/m*3 12.2 C 0 km/h
743 12-04-2007 00:20:04 12 C 6.5 g/m*3 12 C 0 km/h
744 12-04-2007 00:35:04 11.9 C 6.67 g/m*3 11.9 C 0 km/h
745 12-04-2007 00:50:04 11.3 C 6.53 g/m*3 11.3 C 0 km/h
746 12-04-2007 01:05:04 11.3 C 6.53 g/m*3 11.3 C 0 km/h
747 12-04-2007 01:20:04 11.1 C 6.45 g/m*3 11.1 C 0 km/h
748 12-04-2007 01:35:04 11 C 6.51 g/m*3 11 C 0 km/h
749 12-04-2007 01:50:04 11.2 C 6.59 g/m*3 11.2 C 0 km/h
750 12-04-2007 02:05:04 11.2 C 6.49 g/m*3 11.2 C 0 km/h
Sensor: Nr:Datum:Temp:Abs-Feuchte:Windchill:Wind:
Aussen-T/F 751 12-04-2007 02:20:04 11 C 6.41 g/m*3 11 C 0 km/h
752 12-04-2007 02:35:04 10.7 C 6.48 g/m*3 10.7 C 0 km/h
753 12-04-2007 02:50:04 10.6 C 6.54 g/m*3 10.6 C 0 km/h
754 12-04-2007 03:05:04 10.4 C 6.46 g/m*3 10.4 C 0 km/h
755 12-04-2007 03:20:04 10.1 C 6.43 g/m*3 10.1 C 0 km/h
756 12-04-2007 03:35:04 9.9 C 6.44 g/m*3 9.9 C 0 km/h
757 12-04-2007 03:50:04 9.5 C 6.37 g/m*3 9.5 C 0 km/h
758 12-04-2007 04:05:04 9.3 C 6.47 g/m*3 9.3 C 0 km/h
759 12-04-2007 04:20:05 9.2 C 6.52 g/m*3 9.2 C 0 km/h
760 12-04-2007 04:35:05 8.9 C 6.48 g/m*3 8.9 C 0 km/h
761 12-04-2007 04:50:05 8.5 C 6.4 g/m*3 8.5 C 0 km/h
762 12-04-2007 05:05:05 8.3 C 6.41 g/m*3 8.3 C 0 km/h
763 12-04-2007 05:20:05 8.1 C 6.41 g/m*3 8.1 C 0 km/h
764 12-04-2007 05:35:05 8 C 6.45 g/m*3 8 C 0 km/h
765 12-04-2007 05:50:05 7.8 C 6.53 g/m*3 7.8 C 0 km/h
766 12-04-2007 06:05:05 7.8 C 6.45 g/m*3 7.8 C 0 km/h
767 12-04-2007 06:20:05 7.6 C 6.36 g/m*3 7.6 C 0 km/h
768 12-04-2007 06:35:05 7.5 C 6.4 g/m*3 7.5 C 0 km/h
769 12-04-2007 06:50:05 7.2 C 6.36 g/m*3 7.2 C 0 km/h
770 12-04-2007 07:05:05 7.2 C 6.44 g/m*3 7.2 C 0 km/h
771 12-04-2007 07:20:05 7.2 C 6.44 g/m*3 7.2 C 0 km/h
772 12-04-2007 07:35:05 7.2 C 6.44 g/m*3 7.2 C 0 km/h
773 12-04-2007 07:50:05 7.3 C 6.48 g/m*3 7.3 C 0 km/h
774 12-04-2007 08:05:05 7.5 C 6.56 g/m*3 7.5 C 0 km/h
775 12-04-2007 08:20:05 7.6 C 6.53 g/m*3 7.6 C 0 km/h
Sensor: Nr:Datum:Temp:Abs-Feuchte:Windchill:Wind:
Aussen-T/F 776 12-04-2007 08:35:05 8 C 6.61 g/m*3 8 C 0 km/h
777 12-04-2007 08:50:05 8.4 C 6.87 g/m*3 8.4 C 0 km/h
778 12-04-2007 09:05:06 9 C 6.96 g/m*3 9 C 0 km/h
779 12-04-2007 09:20:06 9.4 C 6.96 g/m*3 9.4 C 0 km/h
780 12-04-2007 09:35:06 10.2 C 7.04 g/m*3 10.2 C 0 km/h
781 12-04-2007 09:50:06 11 C 7.11 g/m*3 11 C 0 km/h
782 12-04-2007 10:05:06 12 C 7.14 g/m*3 12 C 0 km/h
783 12-04-2007 10:20:06 13 C 6.8 g/m*3 13 C 0 km/h
784 12-04-2007 10:35:06 13.7 C 6.75 g/m*3 13.7 C 0 km/h
785 12-04-2007 10:50:06 14.4 C 6.55 g/m*3 14.4 C 0 km/h
786 12-04-2007 11:05:06 15.2 C 6.62 g/m*3 15.2 C 0 km/h
787 12-04-2007 11:20:06 16 C 6.54 g/m*3 16 C 0 km/h
788 12-04-2007 11:35:06 16.6 C 6.5 g/m*3 16.6 C 0 km/h
789 12-04-2007 11:50:06 17.5 C 6.56 g/m*3 17.5 C 0 km/h
790 12-04-2007 12:05:06 18.2 C 6.53 g/m*3 18.2 C 0 km/h
791 12-04-2007 12:20:06 19.1 C 6.56 g/m*3 19.1 C 0 km/h
792 12-04-2007 12:35:06 19.6 C 6.75 g/m*3 19.6 C 0 km/h
793 12-04-2007 12:50:06 20.2 C 6.64 g/m*3 20.2 C 0 km/h
794 12-04-2007 13:05:06 20.7 C 6.66 g/m*3 20.7 C 0 km/h
795 12-04-2007 13:20:06 21.4 C 6.56 g/m*3 21.4 C 0 km/h
796 12-04-2007 13:35:06 21.9 C 6.56 g/m*3 21.9 C 0 km/h
797 12-04-2007 13:50:07 22.9 C 6.54 g/m*3 22.9 C 0 km/h
798 12-04-2007 14:05:07 23.4 C 6.31 g/m*3 23.4 C 0 km/h
799 12-04-2007 14:20:07 24 C 6.09 g/m*3 24 C 0 km/h
800 12-04-2007 14:35:07 24.7 C 6.34 g/m*3 24.7 C 0 km/h
Sensor: Nr:Datum:Temp:Abs-Feuchte:Windchill:Wind:
Aussen-T/F 801 12-04-2007 14:50:07 25.3 C 6.09 g/m*3 25.3 C 0 km/h
802 12-04-2007 15:05:07 25.9 C 6.05 g/m*3 25.9 C 0 km/h
803 12-04-2007 15:20:07 26.3 C 5.94 g/m*3 26.3 C 0 km/h
804 12-04-2007 15:35:07 26.7 C 5.82 g/m*3 26.7 C 0 km/h
805 12-04-2007 15:50:07 26.7 C 5.57 g/m*3 26.7 C 0 km/h
806 12-04-2007 16:05:07 27.5 C 5.56 g/m*3 27.5 C 0 km/h
807 12-04-2007 16:20:07 27.6 C 5.59 g/m*3 27.6 C 0 km/h
808 12-04-2007 16:35:07 27.7 C 5.62 g/m*3 27.7 C 0 km/h
809 12-04-2007 16:50:07 27.7 C 5.62 g/m*3 27.7 C 0 km/h
810 12-04-2007 17:05:07 27.9 C 5.68 g/m*3 27.9 C 0 km/h
811 12-04-2007 17:20:07 27.5 C 5.82 g/m*3 27.5 C 0 km/h
812 12-04-2007 17:35:07 28.2 C 5.77 g/m*3 28.2 C 0 km/h
813 12-04-2007 17:50:07 28.4 C 5.84 g/m*3 28.4 C 0 km/h
814 12-04-2007 18:05:07 28.6 C 5.62 g/m*3 28.6 C 0 km/h
815 12-04-2007 18:20:08 28.5 C 5.59 g/m*3 28.5 C 0 km/h
816 12-04-2007 18:35:08 28 C 5.44 g/m*3 28 C 0 km/h
817 12-04-2007 18:50:08 28.2 C 5.77 g/m*3 28.2 C 0 km/h
818 12-04-2007 19:05:08 27.9 C 5.68 g/m*3 27.9 C 0 km/h
819 12-04-2007 19:20:08 27.3 C 5.49 g/m*3 27.3 C 0 km/h
820 12-04-2007 19:35:08 26.9 C 6.14 g/m*3 26.9 C 0 km/h
821 12-04-2007 19:50:08 25.3 C 6.09 g/m*3 25.3 C 0 km/h
822 12-04-2007 20:05:08 24 C 6.09 g/m*3 24 C 0 km/h
823 12-04-2007 20:20:08 22.5 C 6.19 g/m*3 22.5 C 0 km/h
824 12-04-2007 20:35:08 21.8 C 6.52 g/m*3 21.8 C 0 km/h
825 12-04-2007 20:50:08 21 C 6.59 g/m*3 21 C 0 km/h
Sensor: Nr:Datum:Temp:Abs-Feuchte:Windchill:Wind:
Aussen-T/F 826 12-04-2007 21:05:08 20.2 C 6.82 g/m*3 20.2 C 0 km/h
827 12-04-2007 21:20:08 19.8 C 6.83 g/m*3 19.8 C 0 km/h
828 12-04-2007 21:35:08 19.5 C 6.88 g/m*3 19.5 C 0 km/h
829 12-04-2007 21:50:08 18.9 C 6.97 g/m*3 18.9 C 0 km/h
830 12-04-2007 22:05:08 18.6 C 7.16 g/m*3 18.6 C 0 km/h
831 12-04-2007 22:20:08 18.2 C 7.15 g/m*3 18.2 C 0 km/h
832 12-04-2007 22:35:08 17.8 C 7.29 g/m*3 17.8 C 0 km/h
833 12-04-2007 22:50:09 17.5 C 7.16 g/m*3 17.5 C 0 km/h
834 12-04-2007 23:05:09 17.2 C 7.18 g/m*3 17.2 C 0 km/h
835 12-04-2007 23:20:09 16.7 C 7.25 g/m*3 16.7 C 0 km/h
836 12-04-2007 23:35:09 16.2 C 7.31 g/m*3 16.2 C 0 km/h
837 12-04-2007 23:50:09 15.9 C 7.45 g/m*3 15.9 C 0 km/h
838 13-04-2007 00:05:09 16 C 7.49 g/m*3 16 C 0 km/h
839 13-04-2007 00:20:09 15.8 C 7.54 g/m*3 15.8 C 0 km/h
840 13-04-2007 00:35:09 15.4 C 7.49 g/m*3 15.4 C 0 km/h
841 13-04-2007 00:50:09 15.2 C 7.53 g/m*3 15.2 C 0 km/h
842 13-04-2007 01:05:09 15.2 C 7.53 g/m*3 15.2 C 0 km/h
843 13-04-2007 01:20:09 15.1 C 7.61 g/m*3 15.1 C 0 km/h
844 13-04-2007 01:35:09 15 C 7.57 g/m*3 15 C 0 km/h
845 13-04-2007 01:50:09 14.6 C 7.63 g/m*3 14.6 C 0 km/h
846 13-04-2007 02:05:09 14.3 C 7.62 g/m*3 14.3 C 0 km/h
847 13-04-2007 02:20:09 13.8 C 7.63 g/m*3 13.8 C 0 km/h
848 13-04-2007 02:35:09 13.7 C 7.58 g/m*3 13.7 C 0 km/h
849 13-04-2007 02:50:09 13.4 C 7.67 g/m*3 13.4 C 0 km/h
850 13-04-2007 03:05:09 13 C 7.48 g/m*3 13 C 0 km/h
Sensor: Nr:Datum:Temp:Abs-Feuchte:Windchill:Wind:
Aussen-T/F 851 13-04-2007 03:20:09 12.6 C 7.52 g/m*3 12.6 C 0 km/h
852 13-04-2007 03:35:10 12.2 C 7.55 g/m*3 12.2 C 0 km/h
853 13-04-2007 03:50:10 11.9 C 7.52 g/m*3 11.9 C 0 km/h
854 13-04-2007 04:05:10 11.7 C 7.53 g/m*3 11.7 C 0 km/h
855 13-04-2007 04:20:10 11.5 C 7.44 g/m*3 11.5 C 0 km/h
856 13-04-2007 04:35:10 11.6 C 7.69 g/m*3 11.6 C 0 km/h
857 13-04-2007 04:50:10 11.3 C 7.65 g/m*3 11.3 C 0 km/h
858 13-04-2007 05:05:10 11.1 C 7.45 g/m*3 11.1 C 0 km/h
859 13-04-2007 05:20:10 11.1 C 7.55 g/m*3 11.1 C 0 km/h
860 13-04-2007 05:35:10 10.8 C 7.51 g/m*3 10.8 C 0 km/h
861 13-04-2007 05:50:10 10.7 C 7.46 g/m*3 10.7 C 0 km/h
862 13-04-2007 06:05:10 10.5 C 7.47 g/m*3 10.5 C 0 km/h
863 13-04-2007 06:20:10 10.4 C 7.52 g/m*3 10.4 C 0 km/h
864 13-04-2007 06:35:10 10.3 C 7.47 g/m*3 10.3 C 0 km/h
865 13-04-2007 06:50:10 10.3 C 7.47 g/m*3 10.3 C 0 km/h
866 13-04-2007 07:05:10 10.2 C 7.52 g/m*3 10.2 C 0 km/h
867 13-04-2007 07:20:10 10.2 C 7.52 g/m*3 10.2 C 0 km/h
868 13-04-2007 07:35:10 10.3 C 7.57 g/m*3 10.3 C 0 km/h
869 13-04-2007 07:50:10 10.5 C 7.57 g/m*3 10.5 C 0 km/h
870 13-04-2007 08:05:11 10.5 C 7.57 g/m*3 10.5 C 0 km/h
871 13-04-2007 08:20:11 10.8 C 7.71 g/m*3 10.8 C 0 km/h
872 13-04-2007 08:35:11 11.1 C 7.76 g/m*3 11.1 C 0 km/h
873 13-04-2007 08:50:11 11.4 C 7.8 g/m*3 11.4 C 0 km/h
874 13-04-2007 09:05:11 12 C 7.99 g/m*3 12 C 0 km/h
875 13-04-2007 09:20:11 12.7 C 8.01 g/m*3 12.7 C 0 km/h
Sensor: Nr:Datum:Temp:Abs-Feuchte:Windchill:Wind:
Aussen-T/F 876 13-04-2007 09:35:11 13 C 7.83 g/m*3 13 C 0 km/h
877 13-04-2007 09:50:11 13.5 C 7.95 g/m*3 13.5 C 0 km/h
878 13-04-2007 10:05:11 14 C 8.08 g/m*3 14 C 0 km/h
879 13-04-2007 10:20:11 14.8 C 8.23 g/m*3 14.8 C 0 km/h
880 13-04-2007 10:35:11 15.6 C 8.25 g/m*3 15.6 C 0 km/h
881 13-04-2007 10:50:11 16.4 C 8.1 g/m*3 16.4 C 0 km/h
882 13-04-2007 11:05:11 17.2 C 7.76 g/m*3 17.2 C 0 km/h
883 13-04-2007 11:20:11 18.2 C 7.77 g/m*3 18.2 C 0 km/h
884 13-04-2007 11:35:11 19.1 C 7.7 g/m*3 19.1 C 0 km/h
885 13-04-2007 11:50:11 19.2 C 7.09 g/m*3 19.2 C 0 km/h
886 13-04-2007 12:05:11 20 C 7.09 g/m*3 20 C 0 km/h
887 13-04-2007 12:20:11 20.4 C 7.08 g/m*3 20.4 C 0 km/h
888 13-04-2007 12:35:11 21.2 C 7.04 g/m*3 21.2 C 0 km/h
889 13-04-2007 12:50:12 21.9 C 7.14 g/m*3 21.9 C 0 km/h
890 13-04-2007 13:05:12 22.1 C 7.03 g/m*3 22.1 C 0 km/h
891 13-04-2007 13:20:12 22.5 C 7.19 g/m*3 22.5 C 0 km/h
892 13-04-2007 13:35:12 23.8 C 6.88 g/m*3 23.8 C 0 km/h
893 13-04-2007 13:50:12 24.5 C 6.71 g/m*3 24.5 C 0 km/h
894 13-04-2007 14:05:12 24.8 C 6.37 g/m*3 24.8 C 0 km/h
895 13-04-2007 14:20:12 25.7 C 6.7 g/m*3 25.7 C 0 km/h
896 13-04-2007 14:35:12 25.7 C 6.22 g/m*3 25.7 C 0 km/h
897 13-04-2007 14:50:12 26.6 C 6.29 g/m*3 26.6 C 0 km/h
898 13-04-2007 15:05:12 27.7 C 5.88 g/m*3 27.7 C 0 km/h
899 13-04-2007 15:20:12 28.7 C 5.65 g/m*3 28.7 C 0 km/h
900 13-04-2007 15:35:12 29 C 5.74 g/m*3 29 C 0 km/h
Sensor: Nr:Datum:Temp:Abs-Feuchte:Windchill:Wind:
Aussen-T/F 901 13-04-2007 15:50:12 29.5 C 5.9 g/m*3 29.5 C 0 km/h
902 13-04-2007 16:05:12 30.2 C 6.13 g/m*3 30.2 C 0 km/h
903 13-04-2007 16:20:12 30.3 C 6.16 g/m*3 30.3 C 0 km/h
904 13-04-2007 16:35:12 30.4 C 6.2 g/m*3 30.4 C 0 km/h
905 13-04-2007 16:50:12 30.9 C 6.37 g/m*3 30.9 C 0 km/h
906 13-04-2007 17:05:12 30.7 C 6.3 g/m*3 30.7 C 0 km/h
907 13-04-2007 17:20:13 30.8 C 6.33 g/m*3 30.8 C 0 km/h
908 13-04-2007 17:35:13 30.8 C 6.33 g/m*3 30.8 C 0 km/h
909 13-04-2007 17:50:13 30.6 C 6.26 g/m*3 30.6 C 0 km/h
910 13-04-2007 18:05:13 30.4 C 6.2 g/m*3 30.4 C 0 km/h
911 13-04-2007 18:20:13 30.3 C 6.16 g/m*3 30.3 C 0 km/h
912 13-04-2007 18:35:13 29.3 C 5.84 g/m*3 29.3 C 0 km/h
913 13-04-2007 18:50:13 29.4 C 5.87 g/m*3 29.4 C 0 km/h
914 13-04-2007 19:05:13 29 C 5.74 g/m*3 29 C 0 km/h
915 13-04-2007 19:20:13 27.9 C 5.95 g/m*3 27.9 C 0 km/h
916 13-04-2007 19:35:13 26.8 C 6.11 g/m*3 26.8 C 0 km/h
917 13-04-2007 19:50:13 25.7 C 6.22 g/m*3 25.7 C 0 km/h
918 13-04-2007 20:05:13 24.6 C 6.3 g/m*3 24.6 C 0 km/h
919 13-04-2007 20:20:13 23.6 C 6.59 g/m*3 23.6 C 0 km/h
920 13-04-2007 20:35:13 22.9 C 6.74 g/m*3 22.9 C 0 km/h
921 13-04-2007 20:50:13 22.5 C 6.79 g/m*3 22.5 C 0 km/h
922 13-04-2007 21:05:13 22.2 C 6.87 g/m*3 22.2 C 0 km/h
923 13-04-2007 21:20:13 22.1 C 6.83 g/m*3 22.1 C 0 km/h
924 13-04-2007 21:35:13 21.8 C 7.1 g/m*3 21.8 C 0 km/h
925 13-04-2007 21:50:14 21.4 C 7.12 g/m*3 21.4 C 0 km/h
Sensor: Nr:Datum:Temp:Abs-Feuchte:Windchill:Wind:
Aussen-T/F 926 13-04-2007 22:05:14 21.2 C 7.04 g/m*3 21.2 C 0 km/h
927 13-04-2007 22:20:14 21.1 C 7.19 g/m*3 21.1 C 0 km/h
928 13-04-2007 22:35:14 20.7 C 7.38 g/m*3 20.7 C 0 km/h
929 13-04-2007 22:50:14 20.5 C 7.3 g/m*3 20.5 C 0 km/h
930 13-04-2007 23:05:14 20.2 C 7.34 g/m*3 20.2 C 0 km/h
931 13-04-2007 23:20:14 20.1 C 7.3 g/m*3 20.1 C 0 km/h
932 13-04-2007 23:35:14 19.9 C 7.22 g/m*3 19.9 C 0 km/h
933 13-04-2007 23:50:14 19.4 C 7.17 g/m*3 19.4 C 0 km/h
934 14-04-2007 00:05:14 19.3 C 7.3 g/m*3 19.3 C 0 km/h
935 14-04-2007 00:20:14 19.2 C 7.26 g/m*3 19.2 C 0 km/h
936 14-04-2007 00:35:14 18.8 C 7.41 g/m*3 18.8 C 0 km/h
937 14-04-2007 00:50:14 18.3 C 7.35 g/m*3 18.3 C 0 km/h
938 14-04-2007 01:05:14 17.8 C 7.29 g/m*3 17.8 C 0 km/h
939 14-04-2007 01:20:14 17.7 C 7.39 g/m*3 17.7 C 0 km/h
940 14-04-2007 01:35:14 17.5 C 7.31 g/m*3 17.5 C 0 km/h
941 14-04-2007 01:50:14 17.2 C 7.32 g/m*3 17.2 C 0 km/h
942 14-04-2007 02:05:14 17 C 7.38 g/m*3 17 C 0 km/h
943 14-04-2007 02:20:15 16.6 C 7.35 g/m*3 16.6 C 0 km/h
944 14-04-2007 02:35:15 16.3 C 7.35 g/m*3 16.3 C 0 km/h
945 14-04-2007 02:50:15 16.2 C 7.31 g/m*3 16.2 C 0 km/h
946 14-04-2007 03:05:15 15.9 C 7.45 g/m*3 15.9 C 0 km/h
947 14-04-2007 03:20:15 15.4 C 7.36 g/m*3 15.4 C 0 km/h
948 14-04-2007 03:35:15 15 C 7.44 g/m*3 15 C 0 km/h
949 14-04-2007 03:50:15 14.5 C 7.46 g/m*3 14.5 C 0 km/h
950 14-04-2007 04:05:15 14.4 C 7.54 g/m*3 14.4 C 0 km/h
Sensor: Nr:Datum:Temp:Abs-Feuchte:Windchill:Wind:
Aussen-T/F 951 14-04-2007 04:20:15 14.1 C 7.52 g/m*3 14.1 C 0 km/h
952 14-04-2007 04:35:15 13.9 C 7.55 g/m*3 13.9 C 0 km/h
953 14-04-2007 04:50:15 13.8 C 7.63 g/m*3 13.8 C 0 km/h
954 14-04-2007 05:05:15 13.3 C 7.63 g/m*3 13.3 C 0 km/h
955 14-04-2007 05:20:15 13 C 7.48 g/m*3 13 C 0 km/h
956 14-04-2007 05:35:15 12.7 C 7.57 g/m*3 12.7 C 0 km/h
957 14-04-2007 05:50:15 12.5 C 7.7 g/m*3 12.5 C 0 km/h
958 14-04-2007 06:05:15 12.3 C 7.71 g/m*3 12.3 C 0 km/h
959 14-04-2007 06:20:15 12 C 7.67 g/m*3 12 C 0 km/h
960 14-04-2007 06:35:15 11.8 C 7.58 g/m*3 11.8 C 0 km/h
961 14-04-2007 06:50:16 11.7 C 7.53 g/m*3 11.7 C 0 km/h
962 14-04-2007 07:05:16 11.7 C 7.53 g/m*3 11.7 C 0 km/h
963 14-04-2007 07:20:16 11.7 C 7.53 g/m*3 11.7 C 0 km/h
964 14-04-2007 07:35:16 11.7 C 7.64 g/m*3 11.7 C 0 km/h
965 14-04-2007 07:50:16 11.8 C 7.68 g/m*3 11.8 C 0 km/h
966 14-04-2007 08:05:16 12.1 C 7.72 g/m*3 12.1 C 0 km/h
967 14-04-2007 08:20:16 12.2 C 7.77 g/m*3 12.2 C 0 km/h
968 14-04-2007 08:35:16 12.4 C 7.87 g/m*3 12.4 C 0 km/h
969 14-04-2007 08:50:16 12.5 C 7.81 g/m*3 12.5 C 0 km/h
970 14-04-2007 09:05:16 12.8 C 7.84 g/m*3 12.8 C 0 km/h
971 14-04-2007 09:20:16 13.2 C 7.92 g/m*3 13.2 C 0 km/h
972 14-04-2007 09:35:16 13.9 C 8.15 g/m*3 13.9 C 0 km/h
973 14-04-2007 09:50:16 14.7 C 8.18 g/m*3 14.7 C 0 km/h
974 14-04-2007 10:05:16 15.6 C 8.11 g/m*3 15.6 C 0 km/h
975 14-04-2007 10:20:16 16.8 C 8.01 g/m*3 16.8 C 0 km/h
Sensor: Nr:Datum:Temp:Abs-Feuchte:Windchill:Wind:
Aussen-T/F 976 14-04-2007 10:35:16 17.7 C 8.15 g/m*3 17.7 C 0 km/h
977 14-04-2007 10:50:16 18.6 C 8.12 g/m*3 18.6 C 0 km/h
978 14-04-2007 11:05:16 19.5 C 7.55 g/m*3 19.5 C 0 km/h
979 14-04-2007 11:20:17 20.5 C 7.12 g/m*3 20.5 C 0 km/h
980 14-04-2007 11:35:17 21.5 C 6.98 g/m*3 21.5 C 0 km/h
981 14-04-2007 11:50:17 22.1 C 6.64 g/m*3 22.1 C 0 km/h
982 14-04-2007 12:05:17 22.9 C 6.74 g/m*3 22.9 C 0 km/h
983 14-04-2007 12:20:17 23.4 C 6.52 g/m*3 23.4 C 0 km/h
984 14-04-2007 12:35:17 24.1 C 6.56 g/m*3 24.1 C 0 km/h
985 14-04-2007 12:50:17 24.6 C 6.3 g/m*3 24.6 C 0 km/h
986 14-04-2007 13:05:17 25 C 6.22 g/m*3 25 C 0 km/h
987 14-04-2007 13:20:17 25.3 C 6.09 g/m*3 25.3 C 0 km/h
988 14-04-2007 13:35:17 26.4 C 6.22 g/m*3 26.4 C 0 km/h
989 14-04-2007 13:50:17 26.8 C 6.11 g/m*3 26.8 C 0 km/h
990 14-04-2007 14:05:17 27.7 C 6.15 g/m*3 27.7 C 0 km/h
991 14-04-2007 14:20:17 28.3 C 6.08 g/m*3 28.3 C 0 km/h
992 14-04-2007 14:35:17 29 C 6.03 g/m*3 29 C 0 km/h
993 14-04-2007 14:50:17 29.7 C 5.97 g/m*3 29.7 C 0 km/h
994 14-04-2007 15:05:17 30.3 C 6.16 g/m*3 30.3 C 0 km/h
995 14-04-2007 15:20:17 30.7 C 6.3 g/m*3 30.7 C 0 km/h
996 14-04-2007 15:35:17 31 C 6.4 g/m*3 31 C 0 km/h
997 14-04-2007 15:50:18 31 C 6.4 g/m*3 31 C 0 km/h
998 14-04-2007 16:05:18 31.1 C 6.43 g/m*3 31.1 C 0 km/h
999 14-04-2007 16:20:18 31.4 C 6.54 g/m*3 31.4 C 0 km/h
1000 14-04-2007 16:35:18 31.4 C 6.54 g/m*3 31.4 C 0 km/h
Sensor: Nr:Datum:Temp:Abs-Feuchte:Windchill:Wind:
Aussen-T/F 1001 14-04-2007 16:50:18 32 C 6.75 g/m*3 32 C 0 km/h
1002 14-04-2007 17:05:18 32.1 C 6.79 g/m*3 32.1 C 0 km/h
1003 14-04-2007 17:20:18 31.8 C 6.68 g/m*3 31.8 C 0 km/h
1004 14-04-2007 17:35:18 31.9 C 6.72 g/m*3 31.9 C 0 km/h
1005 14-04-2007 17:50:18 32 C 6.75 g/m*3 32 C 0 km/h
1006 14-04-2007 18:05:18 31.7 C 6.64 g/m*3 31.7 C 0 km/h
1007 14-04-2007 18:20:18 32 C 6.75 g/m*3 32 C 0 km/h
1008 14-04-2007 18:35:18 31.8 C 6.68 g/m*3 31.8 C 0 km/h
1009 14-04-2007 18:50:18 31.5 C 6.57 g/m*3 31.5 C 0 km/h
1010 14-04-2007 19:05:18 31.2 C 6.47 g/m*3 31.2 C 0 km/h
1011 14-04-2007 19:20:18 30.8 C 6.33 g/m*3 30.8 C 0 km/h
1012 14-04-2007 19:35:18 30.6 C 6.26 g/m*3 30.6 C 0 km/h
1013 14-04-2007 19:50:18 30 C 6.06 g/m*3 30 C 0 km/h
1014 14-04-2007 20:05:19 27.4 C 5.26 g/m*3 27.4 C 0 km/h
1015 14-04-2007 20:20:19 25.9 C 4.84 g/m*3 25.9 C 0 km/h
1016 14-04-2007 20:35:19 24.6 C 4.5 g/m*3 24.6 C 0 km/h
1017 14-04-2007 20:50:19 24.2 C 4.4 g/m*3 24.2 C 0 km/h
1018 14-04-2007 21:05:19 23.5 C 4.44 g/m*3 23.5 C 0 km/h
1019 14-04-2007 21:20:19 23 C 4.32 g/m*3 23 C 0 km/h
1020 14-04-2007 21:35:19 22.8 C 5.08 g/m*3 22.8 C 0 km/h
1021 14-04-2007 21:50:19 22.6 C 5.42 g/m*3 22.6 C 0 km/h
1022 14-04-2007 22:05:19 22.3 C 5.92 g/m*3 22.3 C 0 km/h
1023 14-04-2007 22:20:19 22.1 C 6.44 g/m*3 22.1 C 0 km/h
1024 14-04-2007 22:35:19 21.3 C 6.71 g/m*3 21.3 C 0 km/h
1025 14-04-2007 22:50:19 20.9 C 7.1 g/m*3 20.9 C 0 km/h
Sensor: Nr:Datum:Temp:Abs-Feuchte:Windchill:Wind:
Aussen-T/F 1026 14-04-2007 23:05:19 20.4 C 7.08 g/m*3 20.4 C 0 km/h
1027 14-04-2007 23:20:19 20.1 C 7.13 g/m*3 20.1 C 0 km/h
1028 14-04-2007 23:35:19 19.9 C 7.22 g/m*3 19.9 C 0 km/h
1029 14-04-2007 23:50:19 19.7 C 7.13 g/m*3 19.7 C 0 km/h
1030 15-04-2007 00:05:19 19.6 C 7.09 g/m*3 19.6 C 0 km/h
1031 15-04-2007 00:20:19 19.3 C 6.97 g/m*3 19.3 C 0 km/h
1032 15-04-2007 00:35:20 19 C 6.84 g/m*3 19 C 0 km/h
1033 15-04-2007 00:50:20 18.7 C 6.88 g/m*3 18.7 C 0 km/h
1034 15-04-2007 01:05:20 18.5 C 6.8 g/m*3 18.5 C 0 km/h
1035 15-04-2007 01:20:20 18.2 C 6.68 g/m*3 18.2 C 0 km/h
1036 15-04-2007 01:35:20 18 C 6.6 g/m*3 18 C 0 km/h
1037 15-04-2007 01:50:20 17.8 C 6.83 g/m*3 17.8 C 0 km/h
1038 15-04-2007 02:05:20 17.4 C 6.82 g/m*3 17.4 C 0 km/h
1039 15-04-2007 02:20:20 17 C 6.95 g/m*3 17 C 0 km/h
1040 15-04-2007 02:35:20 16.7 C 6.82 g/m*3 16.7 C 0 km/h
1041 15-04-2007 02:50:20 16.4 C 6.84 g/m*3 16.4 C 0 km/h
1042 15-04-2007 03:05:20 15.9 C 6.91 g/m*3 15.9 C 0 km/h
1043 15-04-2007 03:20:20 15.1 C 6.97 g/m*3 15.1 C 0 km/h
1044 15-04-2007 03:35:20 14.6 C 7.13 g/m*3 14.6 C 0 km/h
1045 15-04-2007 03:50:20 14 C 7 g/m*3 14 C 0 km/h
1046 15-04-2007 04:05:20 13.8 C 7.15 g/m*3 13.8 C 0 km/h
1047 15-04-2007 04:20:20 13.5 C 7.25 g/m*3 13.5 C 0 km/h
1048 15-04-2007 04:35:20 13.1 C 7.07 g/m*3 13.1 C 0 km/h
1049 15-04-2007 04:50:20 13 C 7.14 g/m*3 13 C 0 km/h
1050 15-04-2007 05:05:20 12.7 C 7.12 g/m*3 12.7 C 0 km/h
Sensor: Nr:Datum:Temp:Abs-Feuchte:Windchill:Wind:
Aussen-T/F 1051 15-04-2007 05:20:20 12.5 C 7.15 g/m*3 12.5 C 0 km/h
1052 15-04-2007 05:35:21 12.1 C 7.08 g/m*3 12.1 C 0 km/h
1053 15-04-2007 05:50:21 11.7 C 7.22 g/m*3 11.7 C 0 km/h
1054 15-04-2007 06:05:21 11.5 C 7.13 g/m*3 11.5 C 0 km/h
1055 15-04-2007 06:20:21 11.3 C 7.14 g/m*3 11.3 C 0 km/h
1056 15-04-2007 06:35:21 11.1 C 7.05 g/m*3 11.1 C 0 km/h
1057 15-04-2007 06:50:21 10.7 C 7.07 g/m*3 10.7 C 0 km/h
1058 15-04-2007 07:05:21 10.7 C 7.17 g/m*3 10.7 C 0 km/h
1059 15-04-2007 07:20:21 10.6 C 7.22 g/m*3 10.6 C 0 km/h
1060 15-04-2007 07:35:21 10.6 C 7.22 g/m*3 10.6 C 0 km/h
1061 15-04-2007 07:50:21 10.7 C 7.17 g/m*3 10.7 C 0 km/h
1062 15-04-2007 08:05:21 10.8 C 7.22 g/m*3 10.8 C 0 km/h
1063 15-04-2007 08:20:21 10.9 C 7.26 g/m*3 10.9 C 0 km/h
1064 15-04-2007 08:35:21 11.2 C 7.3 g/m*3 11.2 C 0 km/h
1065 15-04-2007 08:50:21 11.7 C 7.43 g/m*3 11.7 C 0 km/h
1066 15-04-2007 09:05:21 12 C 7.35 g/m*3 12 C 0 km/h
1067 15-04-2007 09:20:21 12.5 C 7.59 g/m*3 12.5 C 0 km/h
1068 15-04-2007 09:35:21 13.3 C 7.74 g/m*3 13.3 C 0 km/h
1069 15-04-2007 09:50:21 14.5 C 7.84 g/m*3 14.5 C 0 km/h
1070 15-04-2007 10:05:21 15.4 C 7.62 g/m*3 15.4 C 0 km/h
1071 15-04-2007 10:20:22 16.4 C 7.68 g/m*3 16.4 C 0 km/h
1072 15-04-2007 10:35:22 17.4 C 7.85 g/m*3 17.4 C 0 km/h
1073 15-04-2007 10:50:22 18.3 C 7.82 g/m*3 18.3 C 0 km/h
1074 15-04-2007 11:05:22 19.7 C 6.79 g/m*3 19.7 C 0 km/h
1075 15-04-2007 11:20:22 20.8 C 6.52 g/m*3 20.8 C 0 km/h
Sensor: Nr:Datum:Temp:Abs-Feuchte:Windchill:Wind:
Aussen-T/F 1076 15-04-2007 11:35:22 21.7 C 6.49 g/m*3 21.7 C 0 km/h
1077 15-04-2007 11:50:22 22.3 C 6.12 g/m*3 22.3 C 0 km/h
1078 15-04-2007 12:05:22 23.2 C 5.61 g/m*3 23.2 C 0 km/h
1079 15-04-2007 12:20:22 23.9 C 5.62 g/m*3 23.9 C 0 km/h
1080 15-04-2007 12:35:22 24.4 C 4.67 g/m*3 24.4 C 0 km/h
1081 15-04-2007 12:50:22 24.9 C 4.81 g/m*3 24.9 C 0 km/h
1082 15-04-2007 13:05:22 25.5 C 4.97 g/m*3 25.5 C 0 km/h
1083 15-04-2007 13:20:22 26 C 4.87 g/m*3 26 C 0 km/h
1084 15-04-2007 13:35:22 26.5 C 5.01 g/m*3 26.5 C 0 km/h
1085 15-04-2007 13:50:22 27.3 C 5.23 g/m*3 27.3 C 0 km/h
1086 15-04-2007 14:05:22 28 C 5.44 g/m*3 28 C 0 km/h
1087 15-04-2007 14:20:22 28.8 C 5.68 g/m*3 28.8 C 0 km/h
1088 15-04-2007 14:35:22 29.4 C 5.87 g/m*3 29.4 C 0 km/h
1089 15-04-2007 14:50:23 30 C 6.06 g/m*3 30 C 0 km/h
1090 15-04-2007 15:05:23 30.1 C 6.1 g/m*3 30.1 C 0 km/h
1091 15-04-2007 15:20:23 30.5 C 6.23 g/m*3 30.5 C 0 km/h
1092 15-04-2007 15:35:23 30.8 C 6.33 g/m*3 30.8 C 0 km/h
1093 15-04-2007 15:50:23 31.1 C 6.43 g/m*3 31.1 C 0 km/h
1094 15-04-2007 16:05:23 31.2 C 6.47 g/m*3 31.2 C 0 km/h
1095 15-04-2007 16:20:23 31.7 C 6.64 g/m*3 31.7 C 0 km/h
1096 15-04-2007 16:35:23 31.5 C 6.57 g/m*3 31.5 C 0 km/h
1097 15-04-2007 16:50:23 32.1 C 6.79 g/m*3 32.1 C 0 km/h
1098 15-04-2007 17:05:23 32 C 6.75 g/m*3 32 C 0 km/h
1099 15-04-2007 17:20:23 32.1 C 6.79 g/m*3 32.1 C 0 km/h
1100 15-04-2007 17:35:23 32 C 6.75 g/m*3 32 C 0 km/h
Sensor: Nr:Datum:Temp:Abs-Feuchte:Windchill:Wind:
Aussen-T/F 1101 15-04-2007 17:50:23 32 C 6.75 g/m*3 32 C 0 km/h
1102 15-04-2007 18:05:23 32 C 6.75 g/m*3 32 C 0 km/h
1103 15-04-2007 18:20:23 31.8 C 6.68 g/m*3 31.8 C 0 km/h
1104 15-04-2007 18:35:23 31.8 C 6.68 g/m*3 31.8 C 0 km/h
1105 15-04-2007 18:50:23 31.7 C 6.64 g/m*3 31.7 C 0 km/h
1106 15-04-2007 19:05:24 31.5 C 6.57 g/m*3 31.5 C 0 km/h
1107 15-04-2007 19:20:24 31.3 C 6.5 g/m*3 31.3 C 0 km/h
1108 15-04-2007 19:35:24 30.7 C 6.3 g/m*3 30.7 C 0 km/h
1109 15-04-2007 19:50:24 29.9 C 6.03 g/m*3 29.9 C 0 km/h
1110 15-04-2007 20:05:24 28 C 5.44 g/m*3 28 C 0 km/h
1111 15-04-2007 20:20:24 26.1 C 4.9 g/m*3 26.1 C 0 km/h
1112 15-04-2007 20:35:24 24.6 C 4.5 g/m*3 24.6 C 0 km/h
1113 15-04-2007 20:50:24 23.6 C 4.25 g/m*3 23.6 C 0 km/h
1114 15-04-2007 21:05:24 22.8 C 4.06 g/m*3 22.8 C 0 km/h
1115 15-04-2007 21:20:24 22.2 C 4.32 g/m*3 22.2 C 0 km/h
1116 15-04-2007 21:35:24 21.6 C 4.55 g/m*3 21.6 C 0 km/h
1117 15-04-2007 21:50:24 21 C 4.58 g/m*3 21 C 0 km/h
1118 15-04-2007 22:05:24 20.5 C 4.63 g/m*3 20.5 C 0 km/h
1119 15-04-2007 22:20:24 19.9 C 5.15 g/m*3 19.9 C 0 km/h
1120 15-04-2007 22:35:24 19.5 C 5.2 g/m*3 19.5 C 0 km/h
1121 15-04-2007 22:50:24 18.7 C 5.12 g/m*3 18.7 C 0 km/h
1122 15-04-2007 23:05:24 18.3 C 5.32 g/m*3 18.3 C 0 km/h
1123 15-04-2007 23:20:24 17.2 C 5.56 g/m*3 17.2 C 0 km/h
1124 15-04-2007 23:35:24 16.8 C 5.86 g/m*3 16.8 C 0 km/h
1125 15-04-2007 23:50:24 16.4 C 5.58 g/m*3 16.4 C 0 km/h
Sensor: Nr:Datum:Temp:Abs-Feuchte:Windchill:Wind:
Aussen-T/F 1126 16-04-2007 00:05:25 16.3 C 5.41 g/m*3 16.3 C 0 km/h
1127 16-04-2007 00:20:25 16 C 5.45 g/m*3 16 C 0 km/h
1128 16-04-2007 00:35:25 15.6 C 5.59 g/m*3 15.6 C 0 km/h
1129 16-04-2007 00:50:25 14.7 C 5.67 g/m*3 14.7 C 0 km/h
1130 16-04-2007 01:05:25 14.6 C 5.63 g/m*3 14.6 C 0 km/h
1131 16-04-2007 01:20:25 14.3 C 5.41 g/m*3 14.3 C 0 km/h
1132 16-04-2007 01:35:25 14.2 C 5.37 g/m*3 14.2 C 0 km/h
1133 16-04-2007 01:50:25 14.1 C 5.46 g/m*3 14.1 C 0 km/h
1134 16-04-2007 02:05:25 13.7 C 5.45 g/m*3 13.7 C 0 km/h
1135 16-04-2007 02:20:25 13.5 C 5.5 g/m*3 13.5 C 0 km/h
1136 16-04-2007 02:35:25 13.2 C 5.63 g/m*3 13.2 C 0 km/h
1137 16-04-2007 02:50:25 13 C 5.67 g/m*3 13 C 0 km/h
1138 16-04-2007 03:05:25 12.8 C 5.82 g/m*3 12.8 C 0 km/h
1139 16-04-2007 03:20:25 12.4 C 5.68 g/m*3 12.4 C 0 km/h
1140 16-04-2007 03:35:25 12.2 C 5.83 g/m*3 12.2 C 0 km/h
1141 16-04-2007 03:50:25 11.9 C 5.93 g/m*3 11.9 C 0 km/h
1142 16-04-2007 04:05:25 11.8 C 5.79 g/m*3 11.8 C 0 km/h
1143 16-04-2007 04:20:26 11.4 C 5.85 g/m*3 11.4 C 0 km/h
1144 16-04-2007 04:35:26 11.1 C 5.74 g/m*3 11.1 C 0 km/h
1145 16-04-2007 04:50:26 10.9 C 5.87 g/m*3 10.9 C 0 km/h
1146 16-04-2007 05:05:26 10.8 C 5.93 g/m*3 10.8 C 0 km/h
1147 16-04-2007 05:20:26 10.5 C 5.92 g/m*3 10.5 C 0 km/h
1148 16-04-2007 05:35:26 10.2 C 5.9 g/m*3 10.2 C 0 km/h
1149 16-04-2007 05:50:26 10.1 C 5.96 g/m*3 10.1 C 0 km/h
1150 16-04-2007 06:05:26 9.8 C 6.03 g/m*3 9.8 C 0 km/h
Sensor: Nr:Datum:Temp:Abs-Feuchte:Windchill:Wind:
Aussen-T/F 1151 16-04-2007 06:20:26 9.8 C 6.03 g/m*3 9.8 C 0 km/h
1152 16-04-2007 06:35:26 9.4 C 5.97 g/m*3 9.4 C 0 km/h
1153 16-04-2007 06:50:26 9.2 C 5.89 g/m*3 9.2 C 0 km/h
1154 16-04-2007 07:05:26 9.2 C 5.98 g/m*3 9.2 C 0 km/h
1155 16-04-2007 07:20:26 9.1 C 5.94 g/m*3 9.1 C 0 km/h
1156 16-04-2007 07:35:26 9.2 C 5.98 g/m*3 9.2 C 0 km/h
1157 16-04-2007 07:50:26 9.3 C 6.11 g/m*3 9.3 C 0 km/h
1158 16-04-2007 08:05:26 9.3 C 6.11 g/m*3 9.3 C 0 km/h
1159 16-04-2007 08:20:26 9.6 C 6.23 g/m*3 9.6 C 0 km/h
1160 16-04-2007 08:35:26 10 C 6.3 g/m*3 10 C 0 km/h
1161 16-04-2007 08:50:27 10.3 C 6.32 g/m*3 10.3 C 0 km/h
1162 16-04-2007 09:05:27 10.8 C 6.42 g/m*3 10.8 C 0 km/h
1163 16-04-2007 09:20:27 11.3 C 6.43 g/m*3 11.3 C 0 km/h
1164 16-04-2007 09:35:27 12.1 C 6.54 g/m*3 12.1 C 0 km/h
1165 16-04-2007 09:50:27 13 C 6.46 g/m*3 13 C 0 km/h
1166 16-04-2007 10:05:27 13.9 C 6.59 g/m*3 13.9 C 0 km/h
1167 16-04-2007 10:20:27 14.7 C 6.67 g/m*3 14.7 C 0 km/h
1168 16-04-2007 10:35:27 16 C 6.54 g/m*3 16 C 0 km/h
1169 16-04-2007 10:50:27 16.7 C 6.68 g/m*3 16.7 C 0 km/h
1170 16-04-2007 11:05:27 17.9 C 6.87 g/m*3 17.9 C 0 km/h
1171 16-04-2007 11:20:27 18.9 C 7.13 g/m*3 18.9 C 0 km/h
1172 16-04-2007 11:35:27 20.2 C 6.99 g/m*3 20.2 C 0 km/h
1173 16-04-2007 11:50:27 21.2 C 6.49 g/m*3 21.2 C 0 km/h
1174 16-04-2007 12:05:27 21.5 C 6.03 g/m*3 21.5 C 0 km/h
1175 16-04-2007 12:20:27 21.9 C 5.98 g/m*3 21.9 C 0 km/h
Sensor: Nr:Datum:Temp:Abs-Feuchte:Windchill:Wind:
Aussen-T/F 1176 16-04-2007 12:35:27 22.7 C 5.86 g/m*3 22.7 C 0 km/h
1177 16-04-2007 12:50:27 23.5 C 6.13 g/m*3 23.5 C 0 km/h
1178 16-04-2007 13:05:27 24.2 C 5.5 g/m*3 24.2 C 0 km/h
1179 16-04-2007 13:20:27 24.7 C 5.21 g/m*3 24.7 C 0 km/h
1180 16-04-2007 13:35:28 25.7 C 4.79 g/m*3 25.7 C 0 km/h
1181 16-04-2007 13:50:28 26.6 C 5.03 g/m*3 26.6 C 0 km/h
1182 16-04-2007 14:05:28 27.4 C 5.26 g/m*3 27.4 C 0 km/h
1183 16-04-2007 14:20:28 27.8 C 5.38 g/m*3 27.8 C 0 km/h
1184 16-04-2007 14:35:28 28.9 C 5.71 g/m*3 28.9 C 0 km/h
1185 16-04-2007 14:50:28 29.5 C 5.9 g/m*3 29.5 C 0 km/h
1186 16-04-2007 15:05:28 29.7 C 5.97 g/m*3 29.7 C 0 km/h
1187 16-04-2007 15:20:28 29.4 C 5.87 g/m*3 29.4 C 0 km/h
1188 16-04-2007 15:35:28 30.3 C 6.16 g/m*3 30.3 C 0 km/h
1189 16-04-2007 15:50:28 30.4 C 6.2 g/m*3 30.4 C 0 km/h
1190 16-04-2007 16:05:28 31 C 6.4 g/m*3 31 C 0 km/h
1191 16-04-2007 16:20:28 31 C 6.4 g/m*3 31 C 0 km/h
1192 16-04-2007 16:35:28 31.7 C 6.64 g/m*3 31.7 C 0 km/h
1193 16-04-2007 16:50:28 31.9 C 6.72 g/m*3 31.9 C 0 km/h
1194 16-04-2007 17:05:17 31.5 C 6.57 g/m*3 31.5 C 0 km/h
1195 16-04-2007 17:20:43 32 C 6.75 g/m*3 32 C 0 km/h
1196 16-04-2007 17:35:01 31.5 C 6.57 g/m*3 31.5 C 0 km/h
1197 16-04-2007 17:50:27 31.3 C 6.5 g/m*3 31.3 C 0 km/h
1198 16-04-2007 18:05:42 31.1 C 6.43 g/m*3 31.1 C 0 km/h
1199 16-04-2007 18:20:10 31.2 C 6.47 g/m*3 31.2 C 0 km/h
1200 16-04-2007 18:35:01 31.2 C 6.47 g/m*3 31.2 C 0 km/h
Sensor: Nr:Datum:Temp:Abs-Feuchte:Windchill:Wind:
Aussen-T/F 1201 16-04-2007 18:50:02 31.2 C 6.47 g/m*3 31.2 C 0 km/h
1202 16-04-2007 19:05:01 30.8 C 6.33 g/m*3 30.8 C 0 km/h
1203 16-04-2007 19:20:01 30.9 C 6.37 g/m*3 30.9 C 0 km/h
1204 16-04-2007 19:35:01 30.3 C 6.16 g/m*3 30.3 C 0 km/h
1205 16-04-2007 19:50:01 29.1 C 5.78 g/m*3 29.1 C 0 km/h
1206 16-04-2007 20:05:02 27.4 C 5.26 g/m*3 27.4 C 0 km/h
1207 16-04-2007 20:20:01 25.2 C 4.66 g/m*3 25.2 C 0 km/h
1208 16-04-2007 20:35:01 24 C 4.35 g/m*3 24 C 0 km/h
1209 16-04-2007 20:50:01 23 C 4.73 g/m*3 23 C 0 km/h
1210 16-04-2007 21:05:02 22.3 C 4.94 g/m*3 22.3 C 0 km/h
1211 16-04-2007 21:20:02 21.7 C 5.15 g/m*3 21.7 C 0 km/h
1212 16-04-2007 21:35:02 21.3 C 5.22 g/m*3 21.3 C 0 km/h
1213 16-04-2007 21:50:02 20.8 C 5.43 g/m*3 20.8 C 0 km/h
1214 16-04-2007 22:05:02 20.4 C 5.31 g/m*3 20.4 C 0 km/h
1215 16-04-2007 22:20:02 19.8 C 5.47 g/m*3 19.8 C 0 km/h
1216 16-04-2007 22:35:02 19.1 C 5.57 g/m*3 19.1 C 0 km/h
1217 16-04-2007 22:50:02 18.7 C 5.44 g/m*3 18.7 C 0 km/h
1218 16-04-2007 23:05:03 18.4 C 5.5 g/m*3 18.4 C 0 km/h
1219 16-04-2007 23:20:02 17.7 C 5.73 g/m*3 17.7 C 0 km/h
1220 16-04-2007 23:35:03 17.2 C 5.86 g/m*3 17.2 C 0 km/h
1221 16-04-2007 23:50:02 16.9 C 5.75 g/m*3 16.9 C 0 km/h
1222 17-04-2007 00:05:03 16.7 C 5.83 g/m*3 16.7 C 0 km/h
1223 17-04-2007 00:20:04 16.4 C 5.72 g/m*3 16.4 C 0 km/h
1224 17-04-2007 00:35:03 16 C 5.86 g/m*3 16 C 0 km/h
1225 17-04-2007 00:50:03 15.7 C 6.02 g/m*3 15.7 C 0 km/h
Sensor: Nr:Datum:Temp:Abs-Feuchte:Windchill:Wind:
Aussen-T/F 1226 17-04-2007 01:05:03 15.1 C 6.19 g/m*3 15.1 C 0 km/h
1227 17-04-2007 01:20:03 14.9 C 6.25 g/m*3 14.9 C 0 km/h
1228 17-04-2007 01:35:03 14.7 C 6.17 g/m*3 14.7 C 0 km/h
1229 17-04-2007 01:50:02 14.3 C 6.14 g/m*3 14.3 C 0 km/h
1230 17-04-2007 02:05:02 13.9 C 6.35 g/m*3 13.9 C 0 km/h
1231 17-04-2007 02:20:03 13.3 C 6.59 g/m*3 13.3 C 0 km/h
1232 17-04-2007 02:35:03 13.2 C 6.54 g/m*3 13.2 C 0 km/h
1233 17-04-2007 02:51:04 13.1 C 6.39 g/m*3 13.1 C 0 km/h
1234 17-04-2007 03:06:04 13 C 6.35 g/m*3 13 C 0 km/h
1235 17-04-2007 03:21:03 12.8 C 6.38 g/m*3 12.8 C 0 km/h
1236 17-04-2007 03:36:03 12.7 C 6.35 g/m*3 12.7 C 0 km/h
1237 17-04-2007 03:51:03 12.4 C 6.34 g/m*3 12.4 C 0 km/h
1238 17-04-2007 04:06:03 12.3 C 6.41 g/m*3 12.3 C 0 km/h
1239 17-04-2007 04:21:02 12 C 6.39 g/m*3 12 C 0 km/h
1240 17-04-2007 04:36:03 11.6 C 6.55 g/m*3 11.6 C 0 km/h
1241 17-04-2007 04:51:03 11.1 C 6.45 g/m*3 11.1 C 0 km/h
1242 17-04-2007 05:06:03 11 C 6.51 g/m*3 11 C 0 km/h
1243 17-04-2007 05:21:02 10.9 C 6.56 g/m*3 10.9 C 0 km/h
1244 17-04-2007 05:36:02 10.7 C 6.48 g/m*3 10.7 C 0 km/h
1245 17-04-2007 05:51:02 10.2 C 6.47 g/m*3 10.2 C 0 km/h
1246 17-04-2007 06:06:03 10.2 C 6.47 g/m*3 10.2 C 0 km/h
1247 17-04-2007 06:21:02 10.1 C 6.43 g/m*3 10.1 C 0 km/h
1248 17-04-2007 06:36:04 10 C 6.48 g/m*3 10 C 0 km/h
1249 17-04-2007 06:51:02 9.9 C 6.72 g/m*3 9.9 C 0 km/h
1250 17-04-2007 07:06:03 11 C 7.71 g/m*3 11 C 0 km/h
Sensor: Nr:Datum:Temp:Abs-Feuchte:Windchill:Wind:
Aussen-T/F 1251 17-04-2007 07:21:02 11.2 C 7.4 g/m*3 11.2 C 0 km/h
1252 17-04-2007 07:36:02 10.7 C 6.97 g/m*3 10.7 C 0 km/h
1253 17-04-2007 07:51:02 10.5 C 6.89 g/m*3 10.5 C 0 km/h
1254 17-04-2007 08:06:03 11 C 7.21 g/m*3 11 C 0 km/h
1255 17-04-2007 08:21:01 11.6 C 7.38 g/m*3 11.6 C 0 km/h
1256 17-04-2007 08:36:02 12.2 C 7.45 g/m*3 12.2 C 0 km/h
1257 17-04-2007 08:51:01 12.7 C 7.68 g/m*3 12.7 C 0 km/h
1258 17-04-2007 09:06:06 12.8 C 7.62 g/m*3 12.8 C 0 km/h
1259 17-04-2007 09:21:02 12.8 C 7.5 g/m*3 12.8 C 0 km/h
1260 17-04-2007 09:36:02 12.9 C 7.44 g/m*3 12.9 C 0 km/h
1261 17-04-2007 09:51:02 13 C 7.37 g/m*3 13 C 0 km/h
1262 17-04-2007 10:06:02 13.2 C 7.46 g/m*3 13.2 C 0 km/h
1263 17-04-2007 10:21:02 13.5 C 7.49 g/m*3 13.5 C 0 km/h
1264 17-04-2007 10:36:02 13.8 C 7.39 g/m*3 13.8 C 0 km/h
1265 17-04-2007 10:51:02 14.2 C 7.45 g/m*3 14.2 C 0 km/h
1266 17-04-2007 11:06:03 14 C 7.24 g/m*3 14 C 0 km/h
1267 17-04-2007 11:21:02 13.5 C 7.49 g/m*3 13.5 C 0 km/h
1268 17-04-2007 11:36:02 13.5 C 7.6 g/m*3 13.5 C 0 km/h
1269 17-04-2007 11:51:02 13.4 C 7.56 g/m*3 13.4 C 0 km/h
1270 17-04-2007 12:06:02 13.8 C 7.63 g/m*3 13.8 C 0 km/h
1271 17-04-2007 12:21:02 13.8 C 7.51 g/m*3 13.8 C 0 km/h
1272 17-04-2007 12:36:02 14.1 C 7.52 g/m*3 14.1 C 0 km/h
1273 17-04-2007 12:51:04 15 C 7.57 g/m*3 15 C 0 km/h
1274 17-04-2007 13:06:13 16 C 7.49 g/m*3 16 C 0 km/h
1275 17-04-2007 13:21:02 16.8 C 7.72 g/m*3 16.8 C 0 km/h
Sensor: Nr:Datum:Temp:Abs-Feuchte:Windchill:Wind:
Aussen-T/F 1276 17-04-2007 13:36:02 17.6 C 7.5 g/m*3 17.6 C 0 km/h
1277 17-04-2007 13:51:02 17.9 C 7.48 g/m*3 17.9 C 0 km/h
1278 17-04-2007 14:06:02 19.2 C 7.59 g/m*3 19.2 C 0 km/h
1279 17-04-2007 14:21:02 19.5 C 7.22 g/m*3 19.5 C 0 km/h
1280 17-04-2007 14:36:02 19.8 C 7.34 g/m*3 19.8 C 0 km/h
1281 17-04-2007 14:51:02 19.3 C 7.13 g/m*3 19.3 C 0 km/h
1282 17-04-2007 15:06:02 19.8 C 7.34 g/m*3 19.8 C 0 km/h
1283 17-04-2007 15:21:02 20.1 C 7.3 g/m*3 20.1 C 0 km/h
1284 17-04-2007 15:36:02 20.4 C 7.25 g/m*3 20.4 C 0 km/h
1285 17-04-2007 15:51:01 20.4 C 7.25 g/m*3 20.4 C 0 km/h
1286 17-04-2007 16:06:02 20.1 C 7.13 g/m*3 20.1 C 0 km/h
1287 17-04-2007 16:21:02 20.2 C 7.17 g/m*3 20.2 C 0 km/h
1288 17-04-2007 16:36:02 20.7 C 7.02 g/m*3 20.7 C 0 km/h
1289 17-04-2007 16:51:02 20.4 C 7.08 g/m*3 20.4 C 0 km/h
1290 17-04-2007 17:06:02 21.6 C 7.02 g/m*3 21.6 C 0 km/h
1291 17-04-2007 17:21:02 19.9 C 6.7 g/m*3 19.9 C 0 km/h
1292 17-04-2007 17:36:01 19.4 C 6.84 g/m*3 19.4 C 0 km/h
1293 17-04-2007 17:51:02 19.2 C 6.76 g/m*3 19.2 C 0 km/h
1294 17-04-2007 18:06:02 19 C 6.68 g/m*3 19 C 0 km/h
1295 17-04-2007 18:21:02 18.7 C 6.56 g/m*3 18.7 C 0 km/h
1296 17-04-2007 18:36:03 18.7 C 6.56 g/m*3 18.7 C 0 km/h
1297 17-04-2007 18:51:02 18.7 C 6.56 g/m*3 18.7 C 0 km/h
1298 17-04-2007 19:06:03 18.1 C 6.33 g/m*3 18.1 C 0 km/h
1299 17-04-2007 19:21:02 17.4 C 6.08 g/m*3 17.4 C 0 km/h
1300 17-04-2007 19:36:02 17 C 5.64 g/m*3 17 C 0 km/h
Sensor: Nr:Datum:Temp:Abs-Feuchte:Windchill:Wind:
Aussen-T/F 1301 17-04-2007 19:51:02 16.6 C 5.23 g/m*3 16.6 C 0 km/h
1302 17-04-2007 20:06:02 16.1 C 4.93 g/m*3 16.1 C 0 km/h
1303 17-04-2007 20:21:01 15.8 C 5.12 g/m*3 15.8 C 0 km/h
1304 17-04-2007 20:36:01 15.5 C 5.16 g/m*3 15.5 C 0 km/h
1305 17-04-2007 20:51:02 15.1 C 5.16 g/m*3 15.1 C 0 km/h
1306 17-04-2007 21:06:01 14.8 C 5.07 g/m*3 14.8 C 0 km/h
1307 17-04-2007 21:21:02 14.3 C 4.67 g/m*3 14.3 C 0 km/h
1308 17-04-2007 21:36:02 14 C 4.22 g/m*3 14 C 0 km/h
1309 17-04-2007 21:51:02 13.6 C 4.35 g/m*3 13.6 C 0 km/h
1310 17-04-2007 22:06:02 13.2 C 4.36 g/m*3 13.2 C 0 km/h
1311 17-04-2007 22:21:02 12.9 C 4.51 g/m*3 12.9 C 0 km/h
1312 17-04-2007 22:36:02 12.5 C 4.29 g/m*3 12.5 C 0 km/h
1313 17-04-2007 22:51:01 12.2 C 3.88 g/m*3 12.2 C 0 km/h
1314 17-04-2007 23:06:02 12.1 C 3.75 g/m*3 12.1 C 0 km/h
1315 17-04-2007 23:21:02 11.8 C 3.89 g/m*3 11.8 C 0 km/h
1316 17-04-2007 23:36:01 11.4 C 4 g/m*3 11.4 C 0 km/h
1317 17-04-2007 23:51:02 11.1 C 4.03 g/m*3 11.1 C 0 km/h
1318 18-04-2007 00:06:02 10.9 C 4.18 g/m*3 10.9 C 0 km/h
1319 18-04-2007 00:21:03 10.6 C 4.2 g/m*3 10.6 C 0 km/h
1320 18-04-2007 00:36:02 10.2 C 4.28 g/m*3 10.2 C 0 km/h
1321 18-04-2007 00:51:02 10.1 C 4.35 g/m*3 10.1 C 0 km/h
1322 18-04-2007 01:06:02 10 C 4.42 g/m*3 10 C 0 km/h
1323 18-04-2007 01:21:02 10 C 4.42 g/m*3 10 C 0 km/h
1324 18-04-2007 01:36:02 9.8 C 4.55 g/m*3 9.8 C 0 km/h
1325 18-04-2007 01:51:02 9.7 C 4.61 g/m*3 9.7 C 0 km/h
Sensor: Nr:Datum:Temp:Abs-Feuchte:Windchill:Wind:
Aussen-T/F 1326 18-04-2007 02:06:02 9.5 C 4.64 g/m*3 9.5 C 0 km/h
1327 18-04-2007 02:21:03 9.3 C 4.76 g/m*3 9.3 C 0 km/h
1328 18-04-2007 02:36:03 9.2 C 4.82 g/m*3 9.2 C 0 km/h
1329 18-04-2007 02:52:03 9 C 4.85 g/m*3 9 C 0 km/h
1330 18-04-2007 03:07:03 8.8 C 4.87 g/m*3 8.8 C 0 km/h
1331 18-04-2007 03:22:03 8.8 C 4.96 g/m*3 8.8 C 0 km/h
1332 18-04-2007 03:37:03 8.6 C 4.98 g/m*3 8.6 C 0 km/h
1333 18-04-2007 03:52:03 8.4 C 5.01 g/m*3 8.4 C 0 km/h
1334 18-04-2007 04:07:03 8.3 C 5.14 g/m*3 8.3 C 0 km/h
1335 18-04-2007 04:22:02 8.2 C 5.19 g/m*3 8.2 C 0 km/h
1336 18-04-2007 04:37:03 8 C 5.29 g/m*3 8 C 0 km/h
1337 18-04-2007 04:52:02 7.8 C 5.47 g/m*3 7.8 C 0 km/h
1338 18-04-2007 05:07:02 7.6 C 5.48 g/m*3 7.6 C 0 km/h
1339 18-04-2007 05:22:02 7.6 C 5.64 g/m*3 7.6 C 0 km/h
1340 18-04-2007 05:37:02 7.5 C 5.68 g/m*3 7.5 C 0 km/h
1341 18-04-2007 05:52:02 7.9 C 5.83 g/m*3 7.9 C 0 km/h
1342 18-04-2007 06:07:02 8 C 5.79 g/m*3 8 C 0 km/h
1343 18-04-2007 06:22:02 7.8 C 5.88 g/m*3 7.8 C 0 km/h
1344 18-04-2007 06:37:03 7.5 C 5.84 g/m*3 7.5 C 0 km/h
1345 18-04-2007 06:52:02 7.1 C 5.77 g/m*3 7.1 C 0 km/h
1346 18-04-2007 07:07:03 7.2 C 5.97 g/m*3 7.2 C 0 km/h
1347 18-04-2007 07:22:01 7.4 C 6.04 g/m*3 7.4 C 0 km/h
1348 18-04-2007 07:37:02 7.4 C 6.04 g/m*3 7.4 C 0 km/h
1349 18-04-2007 07:52:01 7.6 C 6.04 g/m*3 7.6 C 0 km/h
1350 18-04-2007 08:07:02 7.9 C 6.08 g/m*3 7.9 C 0 km/h
Sensor: Nr:Datum:Temp:Abs-Feuchte:Windchill:Wind:
Aussen-T/F 1351 18-04-2007 08:22:01 8.1 C 5.99 g/m*3 8.1 C 0 km/h
1352 18-04-2007 08:37:01 8.4 C 6.02 g/m*3 8.4 C 0 km/h
1353 18-04-2007 08:52:01 8.8 C 6.09 g/m*3 8.8 C 0 km/h
1354 18-04-2007 09:07:01 9.5 C 6.01 g/m*3 9.5 C 0 km/h
1355 18-04-2007 09:22:01 9.7 C 5.81 g/m*3 9.7 C 0 km/h
1356 18-04-2007 09:37:01 9.9 C 5.7 g/m*3 9.9 C 0 km/h
1357 18-04-2007 09:52:02 9.9 C 5.7 g/m*3 9.9 C 0 km/h
1358 18-04-2007 10:07:02 10.4 C 5.4 g/m*3 10.4 C 0 km/h
1359 18-04-2007 10:22:03 10.8 C 5.04 g/m*3 10.8 C 0 km/h
1360 18-04-2007 10:37:02 11.3 C 5.1 g/m*3 11.3 C 0 km/h
1361 18-04-2007 10:52:02 11.7 C 5.02 g/m*3 11.7 C 0 km/h
1362 18-04-2007 11:07:01 11.8 C 4.74 g/m*3 11.8 C 0 km/h
1363 18-04-2007 11:22:01 11.1 C 4.63 g/m*3 11.1 C 0 km/h
1364 18-04-2007 11:37:02 11.8 C 4.32 g/m*3 11.8 C 0 km/h
1365 18-04-2007 11:52:02 13.1 C 4.22 g/m*3 13.1 C 0 km/h
1366 18-04-2007 12:07:02 12.5 C 4.07 g/m*3 12.5 C 0 km/h
1367 18-04-2007 12:22:02 13.5 C 4.09 g/m*3 13.5 C 0 km/h
1368 18-04-2007 12:37:02 12.8 C 4.26 g/m*3 12.8 C 0 km/h
1369 18-04-2007 12:52:02 13.6 C 4.12 g/m*3 13.6 C 0 km/h
1370 18-04-2007 13:07:02 14.3 C 4.05 g/m*3 14.3 C 0 km/h
1371 18-04-2007 13:22:03 13.6 C 3.77 g/m*3 13.6 C 0 km/h
1372 18-04-2007 13:37:02 14.4 C 3.71 g/m*3 14.4 C 0 km/h
1373 18-04-2007 13:52:02 13.5 C 3.63 g/m*3 13.5 C 0 km/h
1374 18-04-2007 14:07:02 14.7 C 3.78 g/m*3 14.7 C 0 km/h
1375 18-04-2007 14:22:01 15.2 C 3.5 g/m*3 15.2 C 0 km/h
Sensor: Nr:Datum:Temp:Abs-Feuchte:Windchill:Wind:
Aussen-T/F 1376 18-04-2007 14:37:02 15.6 C 3.59 g/m*3 15.6 C 0 km/h
1377 18-04-2007 14:52:01 13.9 C 3.36 g/m*3 13.9 C 0 km/h
1378 18-04-2007 15:07:02 14.6 C 3.63 g/m*3 14.6 C 0 km/h
1379 18-04-2007 15:22:02 14.6 C 3.38 g/m*3 14.6 C 0 km/h
1380 18-04-2007 15:37:01 15.1 C 3.23 g/m*3 15.1 C 0 km/h
1381 18-04-2007 15:52:02 15.3 C 3.13 g/m*3 15.3 C 0 km/h
1382 18-04-2007 16:07:01 15.4 C 3.02 g/m*3 15.4 C 0 km/h
1383 18-04-2007 16:22:01 15.3 C 3.26 g/m*3 15.3 C 0 km/h
1384 18-04-2007 16:37:02 14.8 C 3.55 g/m*3 14.8 C 0 km/h
1385 18-04-2007 16:52:02 17.5 C 3.28 g/m*3 17.5 C 0 km/h
1386 18-04-2007 17:07:02 16.5 C 3.09 g/m*3 16.5 C 0 km/h
1387 18-04-2007 17:22:02 15.6 C 3.46 g/m*3 15.6 C 0 km/h
1388 18-04-2007 17:37:03 14.7 C 3.4 g/m*3 14.7 C 0 km/h
1389 18-04-2007 17:52:02 14.8 C 3.55 g/m*3 14.8 C 0 km/h
1390 18-04-2007 18:07:02 15.1 C 3.35 g/m*3 15.1 C 0 km/h
1391 18-04-2007 18:22:02 14.8 C 3.55 g/m*3 14.8 C 0 km/h
1392 18-04-2007 18:37:02 13.9 C 3.6 g/m*3 13.9 C 0 km/h
1393 18-04-2007 18:52:02 14.7 C 3.9 g/m*3 14.7 C 0 km/h
1394 18-04-2007 19:07:01 13.9 C 3.6 g/m*3 13.9 C 0 km/h
1395 18-04-2007 19:22:01 14.4 C 3.71 g/m*3 14.4 C 0 km/h
1396 18-04-2007 19:37:02 14.4 C 3.71 g/m*3 14.4 C 0 km/h
1397 18-04-2007 19:52:02 14.1 C 3.76 g/m*3 14.1 C 0 km/h
1398 18-04-2007 20:07:03 13.5 C 3.98 g/m*3 13.5 C 0 km/h
1399 18-04-2007 20:22:02 13.3 C 3.93 g/m*3 13.3 C 0 km/h
1400 18-04-2007 20:37:02 12.5 C 4.29 g/m*3 12.5 C 0 km/h
Sensor: Nr:Datum:Temp:Abs-Feuchte:Windchill:Wind:
Aussen-T/F 1401 18-04-2007 20:52:02 11.4 C 4.31 g/m*3 11.4 C 0 km/h
1402 18-04-2007 21:07:02 10.5 C 4.27 g/m*3 10.5 C 0 km/h
1403 18-04-2007 21:22:03 10 C 4.23 g/m*3 10 C 0 km/h
1404 18-04-2007 21:37:02 9.8 C 4.36 g/m*3 9.8 C 0 km/h
1405 18-04-2007 21:52:02 9.4 C 4.25 g/m*3 9.4 C 0 km/h
1406 18-04-2007 22:07:02 9.3 C 4.4 g/m*3 9.3 C 0 km/h
1407 18-04-2007 22:22:01 9 C 4.41 g/m*3 9 C 0 km/h
1408 18-04-2007 22:37:02 8.7 C 4.5 g/m*3 8.7 C 0 km/h
1409 18-04-2007 22:52:02 8.3 C 4.55 g/m*3 8.3 C 0 km/h
1410 18-04-2007 23:07:03 8 C 4.63 g/m*3 8 C 0 km/h
1411 18-04-2007 23:22:02 7.5 C 4.72 g/m*3 7.5 C 0 km/h
1412 18-04-2007 23:37:02 7.4 C 4.69 g/m*3 7.4 C 0 km/h
1413 18-04-2007 23:52:01 7.2 C 4.71 g/m*3 7.2 C 0 km/h
1414 19-04-2007 00:07:02 7 C 4.8 g/m*3 7 C 0 km/h
1415 19-04-2007 00:22:02 6.7 C 4.86 g/m*3 6.7 C 0 km/h
1416 19-04-2007 00:37:01 6.4 C 4.77 g/m*3 6.4 C 0 km/h
1417 19-04-2007 00:52:02 6.3 C 4.81 g/m*3 6.3 C 0 km/h
1418 19-04-2007 01:07:03 5.9 C 4.9 g/m*3 5.9 C 0 km/h
1419 19-04-2007 01:22:03 5.7 C 4.84 g/m*3 5.7 C 0 km/h
1420 19-04-2007 01:37:03 5.4 C 4.81 g/m*3 5.4 C 0 km/h
1421 19-04-2007 01:52:02 5.2 C 4.89 g/m*3 5.2 C 0 km/h
1422 19-04-2007 02:07:02 5 C 4.82 g/m*3 5 C 0 km/h
1423 19-04-2007 02:22:02 4.9 C 4.93 g/m*3 4.9 C 0 km/h
1424 19-04-2007 02:37:02 4.7 C 4.93 g/m*3 4.7 C 0 km/h
1425 19-04-2007 02:53:03 4.4 C 4.96 g/m*3 4.4 C 0 km/h
Sensor: Nr:Datum:Temp:Abs-Feuchte:Windchill:Wind:
Aussen-T/F 1426 19-04-2007 03:08:03 4.3 C 4.93 g/m*3 4.3 C 0 km/h
1427 19-04-2007 03:23:04 4.1 C 4.8 g/m*3 4.1 C 0 km/h
1428 19-04-2007 03:38:02 4 C 4.77 g/m*3 4 C 0 km/h
1429 19-04-2007 03:53:02 3.9 C 4.93 g/m*3 3.9 C 0 km/h
1430 19-04-2007 04:08:02 3.6 C 4.83 g/m*3 3.6 C 0 km/h
1431 19-04-2007 04:23:02 3.4 C 4.83 g/m*3 3.4 C 0 km/h
1432 19-04-2007 04:38:02 3.3 C 4.85 g/m*3 3.3 C 0 km/h
1433 19-04-2007 04:53:02 3.1 C 4.85 g/m*3 3.1 C 0 km/h
1434 19-04-2007 05:08:02 2.9 C 4.9 g/m*3 2.9 C 0 km/h
1435 19-04-2007 05:23:02 2.7 C 4.84 g/m*3 2.7 C 0 km/h
1436 19-04-2007 05:38:02 2.6 C 4.8 g/m*3 2.6 C 0 km/h
1437 19-04-2007 05:53:01 2.5 C 4.77 g/m*3 2.5 C 0 km/h
1438 19-04-2007 06:08:02 2.3 C 4.76 g/m*3 2.3 C 0 km/h
1439 19-04-2007 06:23:02 2.3 C 4.76 g/m*3 2.3 C 0 km/h
1440 19-04-2007 06:38:01 2.1 C 4.76 g/m*3 2.1 C 0 km/h
1441 19-04-2007 06:53:02 2 C 4.72 g/m*3 2 C 0 km/h
1442 19-04-2007 07:08:01 2 C 4.72 g/m*3 2 C 0 km/h
1443 19-04-2007 07:23:02 2.2 C 4.79 g/m*3 2.2 C 0 km/h
1444 19-04-2007 07:38:02 2.4 C 4.85 g/m*3 2.4 C 0 km/h
1445 19-04-2007 07:53:02 2.5 C 4.89 g/m*3 2.5 C 0 km/h
1446 19-04-2007 08:08:02 2.7 C 5.01 g/m*3 2.7 C 0 km/h
1447 19-04-2007 08:23:01 3.1 C 5.09 g/m*3 3.1 C 0 km/h
1448 19-04-2007 08:38:02 3.4 C 5.01 g/m*3 3.4 C 0 km/h
1449 19-04-2007 08:53:01 3.7 C 5.05 g/m*3 3.7 C 0 km/h
1450 19-04-2007 09:08:02 4.1 C 5.12 g/m*3 4.1 C 0 km/h
Sensor: Nr:Datum:Temp:Abs-Feuchte:Windchill:Wind:
Aussen-T/F 1451 19-04-2007 09:23:01 4.6 C 5.16 g/m*3 4.6 C 0 km/h
1452 19-04-2007 09:38:01 5.4 C 5.09 g/m*3 5.4 C 0 km/h
1453 19-04-2007 09:53:01 6.3 C 5.26 g/m*3 6.3 C 0 km/h
1454 19-04-2007 10:08:01 7.2 C 5.1 g/m*3 7.2 C 0 km/h
1455 19-04-2007 10:23:02 8.5 C 5.12 g/m*3 8.5 C 0 km/h
1456 19-04-2007 10:38:01 9.3 C 5.03 g/m*3 9.3 C 0 km/h
1457 19-04-2007 10:53:02 10.2 C 5.14 g/m*3 10.2 C 0 km/h
1458 19-04-2007 11:08:02 11 C 5.1 g/m*3 11 C 0 km/h
1459 19-04-2007 11:23:01 12.1 C 4.61 g/m*3 12.1 C 0 km/h
1460 19-04-2007 11:38:02 12.9 C 4.28 g/m*3 12.9 C 0 km/h
1461 19-04-2007 11:53:02 13.6 C 4.24 g/m*3 13.6 C 0 km/h
1462 19-04-2007 12:08:02 14 C 4.22 g/m*3 14 C 0 km/h
1463 19-04-2007 12:23:02 14.3 C 4.05 g/m*3 14.3 C 0 km/h
1464 19-04-2007 12:38:02 14.7 C 3.9 g/m*3 14.7 C 0 km/h
1465 19-04-2007 12:53:02 15 C 3.59 g/m*3 15 C 0 km/h
1466 19-04-2007 13:08:02 15.4 C 3.81 g/m*3 15.4 C 0 km/h
1467 19-04-2007 13:23:02 16.1 C 3.29 g/m*3 16.1 C 0 km/h
1468 19-04-2007 13:38:02 16.8 C 3 g/m*3 16.8 C 0 km/h
1469 19-04-2007 13:53:03 17.2 C 3.08 g/m*3 17.2 C 0 km/h
1470 19-04-2007 14:08:02 17.9 C 3.05 g/m*3 17.9 C 0 km/h
1471 19-04-2007 14:23:02 18.8 C 3.22 g/m*3 18.8 C 0 km/h
1472 19-04-2007 14:38:03 19.3 C 3.32 g/m*3 19.3 C 0 km/h
1473 19-04-2007 14:53:02 19.3 C 3.32 g/m*3 19.3 C 0 km/h
1474 19-04-2007 15:08:02 20.2 C 3.5 g/m*3 20.2 C 0 km/h
1475 19-04-2007 15:23:02 21 C 3.66 g/m*3 21 C 0 km/h
Sensor: Nr:Datum:Temp:Abs-Feuchte:Windchill:Wind:
Aussen-T/F 1476 19-04-2007 15:38:02 21.5 C 3.77 g/m*3 21.5 C 0 km/h
1477 19-04-2007 15:53:02 22.3 C 3.95 g/m*3 22.3 C 0 km/h
1478 19-04-2007 16:08:02 22 C 3.88 g/m*3 22 C 0 km/h
1479 19-04-2007 16:23:02 22.8 C 4.06 g/m*3 22.8 C 0 km/h
1480 19-04-2007 16:38:02 22.2 C 3.93 g/m*3 22.2 C 0 km/h
1481 19-04-2007 16:53:02 23.7 C 4.28 g/m*3 23.7 C 0 km/h
1482 19-04-2007 17:08:02 24.7 C 4.53 g/m*3 24.7 C 0 km/h
1483 19-04-2007 17:23:02 25.3 C 4.68 g/m*3 25.3 C 0 km/h
1484 19-04-2007 17:38:02 25.1 C 4.63 g/m*3 25.1 C 0 km/h
1485 19-04-2007 17:53:02 23.2 C 4.16 g/m*3 23.2 C 0 km/h
1486 19-04-2007 18:08:02 23.2 C 4.16 g/m*3 23.2 C 0 km/h
1487 19-04-2007 18:23:01 22.4 C 3.97 g/m*3 22.4 C 0 km/h
1488 19-04-2007 18:38:02 21.6 C 4.17 g/m*3 21.6 C 0 km/h
1489 19-04-2007 18:53:02 21.2 C 4.63 g/m*3 21.2 C 0 km/h
1490 19-04-2007 19:08:02 21.2 C 4.63 g/m*3 21.2 C 0 km/h
1491 19-04-2007 19:23:02 21.1 C 4.79 g/m*3 21.1 C 0 km/h
1492 19-04-2007 19:38:02 19.8 C 4.78 g/m*3 19.8 C 0 km/h
1493 19-04-2007 19:53:02 19.1 C 4.75 g/m*3 19.1 C 0 km/h
1494 19-04-2007 20:08:03 18.1 C 4.64 g/m*3 18.1 C 0 km/h
1495 19-04-2007 20:23:03 17.5 C 4.62 g/m*3 17.5 C 0 km/h
1496 19-04-2007 20:38:02 16.8 C 4.72 g/m*3 16.8 C 0 km/h
1497 19-04-2007 20:53:02 16.1 C 4.8 g/m*3 16.1 C 0 km/h
1498 19-04-2007 21:08:01 15.5 C 4.76 g/m*3 15.5 C 0 km/h
1499 19-04-2007 21:23:02 15.3 C 4.57 g/m*3 15.3 C 0 km/h
1500 19-04-2007 21:38:02 15.1 C 4.26 g/m*3 15.1 C 0 km/h
Sensor: Nr:Datum:Temp:Abs-Feuchte:Windchill:Wind:
Aussen-T/F 1501 19-04-2007 21:53:03 15.1 C 4.26 g/m*3 15.1 C 0 km/h
1502 19-04-2007 22:08:02 14.8 C 4.18 g/m*3 14.8 C 0 km/h
1503 19-04-2007 22:23:02 14.3 C 4.3 g/m*3 14.3 C 0 km/h
1504 19-04-2007 22:38:03 14 C 4.34 g/m*3 14 C 0 km/h
1505 19-04-2007 22:53:02 13.4 C 4.65 g/m*3 13.4 C 0 km/h
1506 19-04-2007 23:08:02 12.6 C 5.09 g/m*3 12.6 C 0 km/h
1507 19-04-2007 23:23:02 12.2 C 4.96 g/m*3 12.2 C 0 km/h
1508 19-04-2007 23:38:02 11.8 C 5.05 g/m*3 11.8 C 0 km/h
1509 19-04-2007 23:53:02 11.6 C 4.78 g/m*3 11.6 C 0 km/h
1510 20-04-2007 00:08:02 12.2 C 4.53 g/m*3 12.2 C 0 km/h
1511 20-04-2007 00:23:03 12.5 C 4.62 g/m*3 12.5 C 0 km/h
1512 20-04-2007 00:38:03 12.5 C 4.62 g/m*3 12.5 C 0 km/h
1513 20-04-2007 00:53:02 12.3 C 4.78 g/m*3 12.3 C 0 km/h
1514 20-04-2007 01:08:02 12.2 C 4.86 g/m*3 12.2 C 0 km/h
1515 20-04-2007 01:23:02 11.9 C 4.87 g/m*3 11.9 C 0 km/h
1516 20-04-2007 01:38:02 11.4 C 4.93 g/m*3 11.4 C 0 km/h
1517 20-04-2007 01:53:02 11.3 C 5.1 g/m*3 11.3 C 0 km/h
1518 20-04-2007 02:08:02 11.1 C 5.14 g/m*3 11.1 C 0 km/h
1519 20-04-2007 02:23:02 11.1 C 5.24 g/m*3 11.1 C 0 km/h
1520 20-04-2007 02:38:02 10.7 C 5.3 g/m*3 10.7 C 0 km/h
1521 20-04-2007 02:54:04 10.3 C 5.27 g/m*3 10.3 C 0 km/h
1522 20-04-2007 03:09:04 10 C 5.45 g/m*3 10 C 0 km/h
1523 20-04-2007 03:24:03 9.8 C 5.57 g/m*3 9.8 C 0 km/h
1524 20-04-2007 03:39:02 9.7 C 5.62 g/m*3 9.7 C 0 km/h
1525 20-04-2007 03:54:02 9.5 C 5.64 g/m*3 9.5 C 0 km/h
Sensor: Nr:Datum:Temp:Abs-Feuchte:Windchill:Wind:
Aussen-T/F 1526 20-04-2007 04:09:02 9.3 C 5.66 g/m*3 9.3 C 0 km/h
1527 20-04-2007 04:24:02 9.2 C 5.63 g/m*3 9.2 C 0 km/h
1528 20-04-2007 04:39:02 8.9 C 5.69 g/m*3 8.9 C 0 km/h
1529 20-04-2007 04:54:02 8.6 C 5.67 g/m*3 8.6 C 0 km/h
1530 20-04-2007 05:09:02 8.4 C 5.68 g/m*3 8.4 C 0 km/h
1531 20-04-2007 05:24:02 8.1 C 5.66 g/m*3 8.1 C 0 km/h
1532 20-04-2007 05:39:02 7.9 C 5.75 g/m*3 7.9 C 0 km/h
1533 20-04-2007 05:54:02 7.6 C 5.72 g/m*3 7.6 C 0 km/h
1534 20-04-2007 06:09:01 7.4 C 5.73 g/m*3 7.4 C 0 km/h
1535 20-04-2007 06:24:02 7.1 C 5.85 g/m*3 7.1 C 0 km/h
1536 20-04-2007 06:39:01 6.9 C 6 g/m*3 6.9 C 0 km/h
1537 20-04-2007 06:54:02 6.9 C 6 g/m*3 6.9 C 0 km/h
1538 20-04-2007 07:09:02 7.3 C 6.08 g/m*3 7.3 C 0 km/h
1539 20-04-2007 07:24:01 7.7 C 6.08 g/m*3 7.7 C 0 km/h
1540 20-04-2007 07:39:02 7.9 C 6.08 g/m*3 7.9 C 0 km/h
1541 20-04-2007 07:54:02 8.1 C 6.07 g/m*3 8.1 C 0 km/h
1542 20-04-2007 08:09:03 8.4 C 6.02 g/m*3 8.4 C 0 km/h
1543 20-04-2007 08:24:02 8.4 C 6.11 g/m*3 8.4 C 0 km/h
1544 20-04-2007 08:39:02 8.6 C 6.19 g/m*3 8.6 C 0 km/h
1545 20-04-2007 08:54:01 9 C 6.08 g/m*3 9 C 0 km/h
1546 20-04-2007 09:09:01 9.9 C 6.26 g/m*3 9.9 C 0 km/h
1547 20-04-2007 09:24:02 10.1 C 6.24 g/m*3 10.1 C 0 km/h
1548 20-04-2007 09:39:01 10.4 C 6.17 g/m*3 10.4 C 0 km/h
1549 20-04-2007 09:54:02 11.3 C 6.32 g/m*3 11.3 C 0 km/h
1550 20-04-2007 10:09:02 11.7 C 5.75 g/m*3 11.7 C 0 km/h
Sensor: Nr:Datum:Temp:Abs-Feuchte:Windchill:Wind:
Aussen-T/F 1551 20-04-2007 10:24:01 11.4 C 5.65 g/m*3 11.4 C 0 km/h
1552 20-04-2007 10:39:02 11.8 C 5.79 g/m*3 11.8 C 0 km/h
1553 20-04-2007 10:54:02 11.7 C 5.23 g/m*3 11.7 C 0 km/h
1554 20-04-2007 11:09:02 11.8 C 5.16 g/m*3 11.8 C 0 km/h
1555 20-04-2007 11:24:02 12.6 C 5.09 g/m*3 12.6 C 0 km/h
1556 20-04-2007 11:39:02 12.7 C 4.9 g/m*3 12.7 C 0 km/h
1557 20-04-2007 11:54:02 13.1 C 4.56 g/m*3 13.1 C 0 km/h
1558 20-04-2007 12:09:02 13.7 C 4.62 g/m*3 13.7 C 0 km/h
1559 20-04-2007 12:24:02 14.3 C 4.67 g/m*3 14.3 C 0 km/h
1560 20-04-2007 12:39:02 14.2 C 4.52 g/m*3 14.2 C 0 km/h
1561 20-04-2007 12:54:02 14 C 4.46 g/m*3 14 C 0 km/h
1562 20-04-2007 13:09:02 14.4 C 4.45 g/m*3 14.4 C 0 km/h
1563 20-04-2007 13:24:02 15.2 C 4.28 g/m*3 15.2 C 0 km/h
1564 20-04-2007 13:39:02 15.4 C 4.07 g/m*3 15.4 C 0 km/h
1565 20-04-2007 13:54:01 16.4 C 4.33 g/m*3 16.4 C 0 km/h
1566 20-04-2007 14:09:02 16.7 C 4.26 g/m*3 16.7 C 0 km/h
1567 20-04-2007 14:24:01 17.2 C 4.25 g/m*3 17.2 C 0 km/h
1568 20-04-2007 14:39:02 16.4 C 3.77 g/m*3 16.4 C 0 km/h
1569 20-04-2007 14:54:02 17 C 3.91 g/m*3 17 C 0 km/h
1570 20-04-2007 15:09:02 16.3 C 3.61 g/m*3 16.3 C 0 km/h
1571 20-04-2007 15:24:01 17.5 C 3.73 g/m*3 17.5 C 0 km/h
1572 20-04-2007 15:39:02 17.8 C 3.49 g/m*3 17.8 C 0 km/h
1573 20-04-2007 15:54:01 17.9 C 3.21 g/m*3 17.9 C 0 km/h
1574 20-04-2007 16:09:02 17 C 3.04 g/m*3 17 C 0 km/h
1575 20-04-2007 16:24:02 17.4 C 3.26 g/m*3 17.4 C 0 km/h
Sensor: Nr:Datum:Temp:Abs-Feuchte:Windchill:Wind:
Aussen-T/F 1576 20-04-2007 16:39:01 17.6 C 3 g/m*3 17.6 C 0 km/h
1577 20-04-2007 16:54:02 18 C 3.07 g/m*3 18 C 0 km/h
1578 20-04-2007 17:09:02 18.6 C 3.18 g/m*3 18.6 C 0 km/h
1579 20-04-2007 17:24:01 18.3 C 3.13 g/m*3 18.3 C 0 km/h
1580 20-04-2007 17:39:02 18.3 C 3.13 g/m*3 18.3 C 0 km/h
1581 20-04-2007 17:54:03 17.5 C 2.98 g/m*3 17.5 C 0 km/h
1582 20-04-2007 18:09:02 17.7 C 3.02 g/m*3 17.7 C 0 km/h
1583 20-04-2007 18:24:02 17.2 C 2.93 g/m*3 17.2 C 0 km/h
1584 20-04-2007 18:39:03 16.4 C 3.07 g/m*3 16.4 C 0 km/h
1585 20-04-2007 18:54:02 16.2 C 3.03 g/m*3 16.2 C 0 km/h
1586 20-04-2007 19:09:03 16.5 C 3.23 g/m*3 16.5 C 0 km/h
1587 20-04-2007 19:24:02 16.3 C 3.19 g/m*3 16.3 C 0 km/h
1588 20-04-2007 19:39:02 15.8 C 3.23 g/m*3 15.8 C 0 km/h
1589 20-04-2007 19:54:01 15.3 C 3.26 g/m*3 15.3 C 0 km/h
1590 20-04-2007 20:09:01 14.4 C 3.21 g/m*3 14.4 C 0 km/h
1591 20-04-2007 20:24:02 13.6 C 3.53 g/m*3 13.6 C 0 km/h
1592 20-04-2007 20:39:02 13 C 3.52 g/m*3 13 C 0 km/h
1593 20-04-2007 20:54:02 12.3 C 3.58 g/m*3 12.3 C 0 km/h
1594 20-04-2007 21:09:02 11.8 C 3.79 g/m*3 11.8 C 0 km/h
1595 20-04-2007 21:24:02 11.4 C 3.9 g/m*3 11.4 C 0 km/h
1596 20-04-2007 21:39:02 10.8 C 3.95 g/m*3 10.8 C 0 km/h
1597 20-04-2007 21:54:02 10.6 C 4 g/m*3 10.6 C 0 km/h
1598 20-04-2007 22:09:02 10.1 C 3.97 g/m*3 10.1 C 0 km/h
1599 20-04-2007 22:24:02 9.7 C 4.06 g/m*3 9.7 C 0 km/h
1600 20-04-2007 22:39:02 9.3 C 4.04 g/m*3 9.3 C 0 km/h
Sensor: Nr:Datum:Temp:Abs-Feuchte:Windchill:Wind:
Aussen-T/F 1601 20-04-2007 22:54:01 9 C 4.06 g/m*3 9 C 0 km/h
1602 20-04-2007 23:09:02 9 C 4.06 g/m*3 9 C 0 km/h
1603 20-04-2007 23:24:02 8.7 C 3.98 g/m*3 8.7 C 0 km/h
1604 20-04-2007 23:39:02 8.4 C 3.9 g/m*3 8.4 C 0 km/h
1605 20-04-2007 23:54:01 8.1 C 3.91 g/m*3 8.1 C 0 km/h
1606 21-04-2007 00:09:02 7.8 C 4 g/m*3 7.8 C 0 km/h
1607 21-04-2007 00:24:02 7.5 C 4 g/m*3 7.5 C 0 km/h
1608 21-04-2007 00:39:02 7.2 C 4 g/m*3 7.2 C 0 km/h
1609 21-04-2007 00:54:02 7 C 3.95 g/m*3 7 C 0 km/h
1610 21-04-2007 01:09:01 6.7 C 4.03 g/m*3 6.7 C 0 km/h
1611 21-04-2007 01:24:02 6.5 C 4.12 g/m*3 6.5 C 0 km/h
1612 21-04-2007 01:39:02 6.4 C 4.1 g/m*3 6.4 C 0 km/h
1613 21-04-2007 01:54:02 6.2 C 4.12 g/m*3 6.2 C 0 km/h
1614 21-04-2007 02:09:01 6 C 3.99 g/m*3 6 C 0 km/h
1615 21-04-2007 02:24:01 5.7 C 4.06 g/m*3 5.7 C 0 km/h
1616 21-04-2007 02:39:02 5.4 C 4.05 g/m*3 5.4 C 0 km/h
1617 21-04-2007 02:55:03 5.3 C 4.09 g/m*3 5.3 C 0 km/h
1618 21-04-2007 03:10:04 5.1 C 4.1 g/m*3 5.1 C 0 km/h
1619 21-04-2007 03:25:04 5 C 4.14 g/m*3 5 C 0 km/h
1620 21-04-2007 03:40:02 4.8 C 4.16 g/m*3 4.8 C 0 km/h
1621 21-04-2007 03:55:03 4.5 C 4.14 g/m*3 4.5 C 0 km/h
1622 21-04-2007 04:10:03 4.4 C 4.11 g/m*3 4.4 C 0 km/h
1623 21-04-2007 04:25:03 4.2 C 4.06 g/m*3 4.2 C 0 km/h
1624 21-04-2007 04:40:03 4 C 4.07 g/m*3 4 C 0 km/h
1625 21-04-2007 04:55:02 3.8 C 4.2 g/m*3 3.8 C 0 km/h
Sensor: Nr:Datum:Temp:Abs-Feuchte:Windchill:Wind:
Aussen-T/F 1626 21-04-2007 05:10:02 3.6 C 4.09 g/m*3 3.6 C 0 km/h
1627 21-04-2007 05:25:02 3.4 C 4.03 g/m*3 3.4 C 0 km/h
1628 21-04-2007 05:40:03 3.3 C 4.06 g/m*3 3.3 C 0 km/h
1629 21-04-2007 05:55:02 3.1 C 4.07 g/m*3 3.1 C 0 km/h
1630 21-04-2007 06:10:02 2.9 C 4.13 g/m*3 2.9 C 0 km/h
1631 21-04-2007 06:25:03 2.8 C 4.16 g/m*3 2.8 C 0 km/h
1632 21-04-2007 06:40:02 2.6 C 4.17 g/m*3 2.6 C 0 km/h
1633 21-04-2007 06:55:02 2.5 C 4.25 g/m*3 2.5 C 0 km/h
1634 21-04-2007 07:10:01 2.5 C 4.31 g/m*3 2.5 C 0 km/h
1635 21-04-2007 07:25:01 2.5 C 4.25 g/m*3 2.5 C 0 km/h
1636 21-04-2007 07:40:02 2.7 C 4.37 g/m*3 2.7 C 0 km/h
1637 21-04-2007 07:55:02 3 C 4.4 g/m*3 3 C 0 km/h
1638 21-04-2007 08:10:02 3.1 C 4.43 g/m*3 3.1 C 0 km/h
1639 21-04-2007 08:25:02 3.4 C 4.46 g/m*3 3.4 C 0 km/h
1640 21-04-2007 08:40:03 3.8 C 4.58 g/m*3 3.8 C 0 km/h
1641 21-04-2007 08:55:02 4.3 C 4.54 g/m*3 4.3 C 0 km/h
1642 21-04-2007 09:10:01 5.1 C 4.51 g/m*3 5.1 C 0 km/h
1643 21-04-2007 09:25:02 5.7 C 4.55 g/m*3 5.7 C 0 km/h
1644 21-04-2007 09:40:02 6.7 C 4.56 g/m*3 6.7 C 0 km/h
1645 21-04-2007 09:55:02 7.6 C 4.43 g/m*3 7.6 C 0 km/h
1646 21-04-2007 10:10:02 8.3 C 4.38 g/m*3 8.3 C 0 km/h
1647 21-04-2007 10:25:02 9 C 4.23 g/m*3 9 C 0 km/h
1648 21-04-2007 10:40:02 10.1 C 4.16 g/m*3 10.1 C 0 km/h
1649 21-04-2007 10:55:02 10.5 C 4.07 g/m*3 10.5 C 0 km/h
1650 21-04-2007 11:10:02 11.3 C 4.08 g/m*3 11.3 C 0 km/h
Sensor: Nr:Datum:Temp:Abs-Feuchte:Windchill:Wind:
Aussen-T/F 1651 21-04-2007 11:25:01 12 C 4.05 g/m*3 12 C 0 km/h
1652 21-04-2007 11:40:02 12.7 C 4.12 g/m*3 12.7 C 0 km/h
1653 21-04-2007 11:55:02 13.2 C 4.02 g/m*3 13.2 C 0 km/h
1654 21-04-2007 12:10:03 13.3 C 4.04 g/m*3 13.3 C 0 km/h
1655 21-04-2007 12:25:02 14.2 C 4.03 g/m*3 14.2 C 0 km/h
1656 21-04-2007 12:40:02 15.1 C 3.87 g/m*3 15.1 C 0 km/h
1657 21-04-2007 12:55:02 15.4 C 3.81 g/m*3 15.4 C 0 km/h
1658 21-04-2007 13:10:02 15.9 C 3.66 g/m*3 15.9 C 0 km/h
1659 21-04-2007 13:25:03 16.7 C 3.69 g/m*3 16.7 C 0 km/h
1660 21-04-2007 13:40:02 17 C 3.62 g/m*3 17 C 0 km/h
1661 21-04-2007 13:55:02 17.2 C 3.37 g/m*3 17.2 C 0 km/h
1662 21-04-2007 14:10:02 18.1 C 3.4 g/m*3 18.1 C 0 km/h
1663 21-04-2007 14:25:01 18.7 C 3.36 g/m*3 18.7 C 0 km/h
1664 21-04-2007 14:40:02 20.2 C 3.5 g/m*3 20.2 C 0 km/h
1665 21-04-2007 14:55:01 19.9 C 3.44 g/m*3 19.9 C 0 km/h
1666 21-04-2007 15:10:02 20.2 C 3.5 g/m*3 20.2 C 0 km/h
1667 21-04-2007 15:25:01 20 C 3.46 g/m*3 20 C 0 km/h
1668 21-04-2007 15:40:01 21.2 C 3.71 g/m*3 21.2 C 0 km/h
1669 21-04-2007 15:55:01 21.8 C 3.84 g/m*3 21.8 C 0 km/h
1670 21-04-2007 16:10:02 21.8 C 3.84 g/m*3 21.8 C 0 km/h
1671 21-04-2007 16:25:02 22.8 C 4.06 g/m*3 22.8 C 0 km/h
1672 21-04-2007 16:40:01 22.8 C 4.06 g/m*3 22.8 C 0 km/h
1673 21-04-2007 16:55:02 23.2 C 4.16 g/m*3 23.2 C 0 km/h
1674 21-04-2007 17:10:02 24.4 C 4.45 g/m*3 24.4 C 0 km/h
1675 21-04-2007 17:25:02 23.6 C 4.25 g/m*3 23.6 C 0 km/h
Sensor: Nr:Datum:Temp:Abs-Feuchte:Windchill:Wind:
Aussen-T/F 1676 21-04-2007 17:40:02 23.3 C 4.18 g/m*3 23.3 C 0 km/h
1677 21-04-2007 17:55:03 24.6 C 4.5 g/m*3 24.6 C 0 km/h
1678 21-04-2007 18:10:03 23.4 C 4.21 g/m*3 23.4 C 0 km/h
1679 21-04-2007 18:25:02 22.2 C 3.93 g/m*3 22.2 C 0 km/h
1680 21-04-2007 18:40:03 22.5 C 3.99 g/m*3 22.5 C 0 km/h
1681 21-04-2007 18:55:01 21.5 C 3.77 g/m*3 21.5 C 0 km/h
1682 21-04-2007 19:10:02 22.2 C 3.93 g/m*3 22.2 C 0 km/h
1683 21-04-2007 19:25:02 22 C 3.88 g/m*3 22 C 0 km/h
1684 21-04-2007 19:40:01 21.4 C 3.75 g/m*3 21.4 C 0 km/h
1685 21-04-2007 19:55:02 20.5 C 3.56 g/m*3 20.5 C 0 km/h
1686 21-04-2007 20:10:02 18.7 C 3.2 g/m*3 18.7 C 0 km/h
1687 21-04-2007 20:25:02 16.9 C 3.45 g/m*3 16.9 C 0 km/h
1688 21-04-2007 20:40:02 15.9 C 3.66 g/m*3 15.9 C 0 km/h
1689 21-04-2007 20:55:03 15.3 C 3.53 g/m*3 15.3 C 0 km/h
1690 21-04-2007 21:10:02 14.8 C 3.42 g/m*3 14.8 C 0 km/h
1691 21-04-2007 21:25:02 14.4 C 3.46 g/m*3 14.4 C 0 km/h
1692 21-04-2007 21:40:03 14.2 C 3.54 g/m*3 14.2 C 0 km/h
1693 21-04-2007 21:55:02 13.8 C 3.69 g/m*3 13.8 C 0 km/h
1694 21-04-2007 22:10:02 13.5 C 3.51 g/m*3 13.5 C 0 km/h
1695 21-04-2007 22:25:02 13 C 3.52 g/m*3 13 C 0 km/h
1696 21-04-2007 22:40:02 12.4 C 3.82 g/m*3 12.4 C 0 km/h
1697 21-04-2007 22:55:03 11.8 C 3.79 g/m*3 11.8 C 0 km/h
1698 21-04-2007 23:10:02 11.4 C 3.8 g/m*3 11.4 C 0 km/h
1699 21-04-2007 23:25:03 11.4 C 3.8 g/m*3 11.4 C 0 km/h
1700 21-04-2007 23:40:02 11.1 C 3.83 g/m*3 11.1 C 0 km/h
Sensor: Nr:Datum:Temp:Abs-Feuchte:Windchill:Wind:
Aussen-T/F 1701 21-04-2007 23:55:02 10.8 C 3.95 g/m*3 10.8 C 0 km/h
1702 22-04-2007 00:10:02 10.4 C 4.05 g/m*3 10.4 C 0 km/h
1703 22-04-2007 00:25:02 9.9 C 4.11 g/m*3 9.9 C 0 km/h
1704 22-04-2007 00:40:02 9.6 C 4.12 g/m*3 9.6 C 0 km/h
1705 22-04-2007 00:55:02 9.5 C 4.28 g/m*3 9.5 C 0 km/h
1706 22-04-2007 01:10:02 9.1 C 4.26 g/m*3 9.1 C 0 km/h
1707 22-04-2007 01:25:02 8.7 C 4.41 g/m*3 8.7 C 0 km/h
1708 22-04-2007 01:40:02 8.4 C 4.33 g/m*3 8.4 C 0 km/h
1709 22-04-2007 01:55:03 8.2 C 4.35 g/m*3 8.2 C 0 km/h
1710 22-04-2007 02:10:03 7.9 C 4.68 g/m*3 7.9 C 0 km/h
1711 22-04-2007 02:25:02 7.5 C 4.64 g/m*3 7.5 C 0 km/h
1712 22-04-2007 02:40:02 7.5 C 4.56 g/m*3 7.5 C 0 km/h
1713 22-04-2007 02:55:02 7.4 C 4.61 g/m*3 7.4 C 0 km/h
1714 22-04-2007 03:10:01 7.3 C 4.5 g/m*3 7.3 C 0 km/h
1715 22-04-2007 03:25:01 7.2 C 4.63 g/m*3 7.2 C 0 km/h
1716 22-04-2007 03:40:01 7 C 4.65 g/m*3 7 C 0 km/h
1717 22-04-2007 03:55:01 7 C 4.73 g/m*3 7 C 0 km/h
1718 22-04-2007 04:10:02 6.5 C 4.65 g/m*3 6.5 C 0 km/h
1719 22-04-2007 04:25:02 6.3 C 4.74 g/m*3 6.3 C 0 km/h
1720 22-04-2007 04:40:02 6.2 C 4.71 g/m*3 6.2 C 0 km/h
1721 22-04-2007 04:55:01 5.9 C 4.69 g/m*3 5.9 C 0 km/h
1722 22-04-2007 05:10:01 5.8 C 4.8 g/m*3 5.8 C 0 km/h
1723 22-04-2007 05:25:02 5.6 C 4.88 g/m*3 5.6 C 0 km/h
1724 22-04-2007 05:40:02 5.3 C 4.71 g/m*3 5.3 C 0 km/h
1725 22-04-2007 05:55:01 5.2 C 4.75 g/m*3 5.2 C 0 km/h
Sensor: Nr:Datum:Temp:Abs-Feuchte:Windchill:Wind:
Aussen-T/F 1726 22-04-2007 06:10:02 4.9 C 4.73 g/m*3 4.9 C 0 km/h
1727 22-04-2007 06:25:01 4.8 C 4.76 g/m*3 4.8 C 0 km/h
1728 22-04-2007 06:40:01 4.7 C 4.73 g/m*3 4.7 C 0 km/h
1729 22-04-2007 06:55:01 4.6 C 4.76 g/m*3 4.6 C 0 km/h
1730 22-04-2007 07:10:01 4.6 C 4.83 g/m*3 4.6 C 0 km/h
1731 22-04-2007 07:25:02 4.7 C 4.8 g/m*3 4.7 C 0 km/h
1732 22-04-2007 07:40:01 4.8 C 4.83 g/m*3 4.8 C 0 km/h
1733 22-04-2007 07:55:02 5 C 4.89 g/m*3 5 C 0 km/h
1734 22-04-2007 08:10:01 5.3 C 4.92 g/m*3 5.3 C 0 km/h
1735 22-04-2007 08:25:01 5.7 C 5.05 g/m*3 5.7 C 0 km/h
1736 22-04-2007 08:40:02 6.1 C 5.11 g/m*3 6.1 C 0 km/h
1737 22-04-2007 08:55:02 6.5 C 5.1 g/m*3 6.5 C 0 km/h
1738 22-04-2007 09:10:02 7 C 5.11 g/m*3 7 C 0 km/h
1739 22-04-2007 09:25:01 7.8 C 5.14 g/m*3 7.8 C 0 km/h
1740 22-04-2007 09:40:02 8.6 C 5.07 g/m*3 8.6 C 0 km/h
1741 22-04-2007 09:55:01 9.7 C 5.07 g/m*3 9.7 C 0 km/h
1742 22-04-2007 10:10:02 10.8 C 4.94 g/m*3 10.8 C 0 km/h
1743 22-04-2007 10:25:01 11.9 C 4.98 g/m*3 11.9 C 0 km/h
1744 22-04-2007 10:40:01 12.9 C 5.07 g/m*3 12.9 C 0 km/h
1745 22-04-2007 10:55:01 13.6 C 4.83 g/m*3 13.6 C 0 km/h
1746 22-04-2007 11:10:01 14.2 C 4.64 g/m*3 14.2 C 0 km/h
1747 22-04-2007 11:25:02 14.9 C 4.59 g/m*3 14.9 C 0 km/h
1748 22-04-2007 11:40:01 16.1 C 4.66 g/m*3 16.1 C 0 km/h
1749 22-04-2007 11:55:02 17.1 C 4.66 g/m*3 17.1 C 0 km/h
1750 22-04-2007 12:10:02 17.9 C 4.58 g/m*3 17.9 C 0 km/h
Sensor: Nr:Datum:Temp:Abs-Feuchte:Windchill:Wind:
Aussen-T/F 1751 22-04-2007 12:25:01 18.6 C 4.3 g/m*3 18.6 C 0 km/h
1752 22-04-2007 12:40:02 18.8 C 4.19 g/m*3 18.8 C 0 km/h
1753 22-04-2007 12:55:01 19.3 C 4.15 g/m*3 19.3 C 0 km/h
1754 22-04-2007 13:10:02 20.5 C 4.27 g/m*3 20.5 C 0 km/h
1755 22-04-2007 13:25:01 21.6 C 3.98 g/m*3 21.6 C 0 km/h
1756 22-04-2007 13:40:01 22.3 C 4.15 g/m*3 22.3 C 0 km/h
1757 22-04-2007 13:55:01 22.8 C 4.27 g/m*3 22.8 C 0 km/h
1758 22-04-2007 14:10:01 23.4 C 4.21 g/m*3 23.4 C 0 km/h
1759 22-04-2007 14:25:02 24.4 C 4.45 g/m*3 24.4 C 0 km/h
1760 22-04-2007 14:40:01 25.3 C 4.68 g/m*3 25.3 C 0 km/h
1761 22-04-2007 14:55:02 25.7 C 4.79 g/m*3 25.7 C 0 km/h
1762 22-04-2007 15:10:01 26.3 C 4.95 g/m*3 26.3 C 0 km/h
1763 22-04-2007 15:25:02 26.5 C 5.01 g/m*3 26.5 C 0 km/h
1764 22-04-2007 15:40:02 27.9 C 5.41 g/m*3 27.9 C 0 km/h
1765 22-04-2007 15:55:02 28.7 C 5.65 g/m*3 28.7 C 0 km/h
1766 22-04-2007 16:10:02 29.5 C 5.9 g/m*3 29.5 C 0 km/h
1767 22-04-2007 16:25:01 28.8 C 5.68 g/m*3 28.8 C 0 km/h
1768 22-04-2007 16:40:02 28.8 C 5.68 g/m*3 28.8 C 0 km/h
1769 22-04-2007 16:55:01 28.7 C 5.65 g/m*3 28.7 C 0 km/h
1770 22-04-2007 17:10:02 29 C 5.74 g/m*3 29 C 0 km/h
1771 22-04-2007 17:25:01 29.7 C 5.97 g/m*3 29.7 C 0 km/h
1772 22-04-2007 17:40:01 29.5 C 5.9 g/m*3 29.5 C 0 km/h
1773 22-04-2007 17:55:01 29.2 C 5.81 g/m*3 29.2 C 0 km/h
1774 22-04-2007 18:10:01 29.9 C 6.03 g/m*3 29.9 C 0 km/h
1775 22-04-2007 18:25:02 29.2 C 5.81 g/m*3 29.2 C 0 km/h
Sensor: Nr:Datum:Temp:Abs-Feuchte:Windchill:Wind:
Aussen-T/F 1776 22-04-2007 18:40:01 28.3 C 5.53 g/m*3 28.3 C 0 km/h
1777 22-04-2007 18:55:02 29.2 C 5.81 g/m*3 29.2 C 0 km/h
1778 22-04-2007 19:10:01 28.7 C 5.65 g/m*3 28.7 C 0 km/h
1779 22-04-2007 19:25:01 28.6 C 5.62 g/m*3 28.6 C 0 km/h
1780 22-04-2007 19:40:02 27.6 C 5.32 g/m*3 27.6 C 0 km/h
1781 22-04-2007 19:55:01 25.8 C 4.82 g/m*3 25.8 C 0 km/h
1782 22-04-2007 20:10:02 24 C 4.35 g/m*3 24 C 0 km/h
1783 22-04-2007 20:25:01 21.9 C 4.25 g/m*3 21.9 C 0 km/h
1784 22-04-2007 20:40:02 20.8 C 4.53 g/m*3 20.8 C 0 km/h
1785 22-04-2007 20:55:01 20.2 C 4.55 g/m*3 20.2 C 0 km/h
1786 22-04-2007 21:10:02 19.5 C 4.53 g/m*3 19.5 C 0 km/h
1787 22-04-2007 21:25:02 18.7 C 4.64 g/m*3 18.7 C 0 km/h
1788 22-04-2007 21:40:01 18.5 C 4.75 g/m*3 18.5 C 0 km/h
1789 22-04-2007 21:55:02 17.8 C 4.71 g/m*3 17.8 C 0 km/h
1790 22-04-2007 22:10:01 17.4 C 4.89 g/m*3 17.4 C 0 km/h
1791 22-04-2007 22:25:02 16.9 C 4.89 g/m*3 16.9 C 0 km/h
1792 22-04-2007 22:40:02 16.4 C 4.89 g/m*3 16.4 C 0 km/h
1793 22-04-2007 22:55:02 16 C 4.77 g/m*3 16 C 0 km/h
1794 22-04-2007 23:10:01 15.5 C 4.89 g/m*3 15.5 C 0 km/h
1795 22-04-2007 23:25:01 14.9 C 5.23 g/m*3 14.9 C 0 km/h
1796 22-04-2007 23:40:02 14.5 C 5.47 g/m*3 14.5 C 0 km/h
1797 22-04-2007 23:55:01 13.9 C 5.27 g/m*3 13.9 C 0 km/h

Legende:
   Min
   Max


Maximal/Minimal-Werte vom 09.04.2007 - 22.04.2007

Sensor Min Max Avg
Temp
(Aussen-T/F)
2 °C
19-04-2007  06:53:02
32.1 °C
14-04-2007  17:05:18
14.1 °C
Abs-Feuchte
(Aussen-T/F)
2.93 g/m*3
20-04-2007  18:24:02
8.25 g/m*3
13-04-2007  10:35:11
5.65 g/m*3
Windchill
(Aussen-T/F)
2 C
19-04-2007  06:53:02
32.1 C
14-04-2007  17:05:18
14.09 C

Die Daten stammen von einer Davis Vantage Pro 2 Wetter-Station und werden unter Linux mit der Software wview2wettercgi und aufbereitet. Alle Angaben erfolgen ohne Gewähr für ihre Vollständigkeit oder Richtigkeit.
Kontakt: Rainer Krienke krienke@uni-koblenz.de . Meine Webseiten an der Uni Koblenz oder privat.
Version: $Revision: 0.78 $